<?xml version="1.0" encoding="UTF-8" standalone="no" ?>
<gpx xmlns="http://www.topografix.com/GPX/1/1" xmlns:xsi="http://www.w3.org/2001/XMLSchema-instance" xsi:schemaLocation="http://www.topografix.com/GPX/1/1 http://www.topografix.com/GPX/1/1/gpx.xsd" version="1.1" creator="VisuGPX - https://www.visugpx.com">
  <metadata>
    <name>Aumessas - Col de l'Homme Mort</name>
    <desc><![CDATA[2015-06 - Aumessas - Les Vernèdes - Montlouviers - col de l'Homme Mort - Hameau de Vernes

[b]album[/b] : [url]https://goo.gl/photos/6KYuKFjd8bw8fdTC8[/url]

[img]https://1.bp.blogspot.com/-7o3iWIj6RZs/WNQtv4ngQ_I/AAAAAAAART8/kVFZU9avaHkfgKL8ymNt0SQxcFMNTC9EACLcB/s1600/2015-06_Aumessas_Montlouviers_col-Homme-Mort_Vernes_photos_i.JPG[/img]

[b]Idées de randonnées dans la même région[/b]
Parcours : [url]https://www.visugpx.com/membres/24856/montagne/aigoual/[/url]
Photos : [url]https://jcvertygo.blogspot.com/p/mont-aigoual.html[/url]]]></desc>
  </metadata>
  <trk>
    <name><![CDATA[Aumessas - Col de l'Homme Mort_1]]></name>
    <trkseg>
      <trkpt lat="43.99115" lon="3.50398">
        <ele>469.7</ele>
        <time>2015-06-08T09:39:32Z</time>
      </trkpt>
      <trkpt lat="43.99111" lon="3.50395">
        <ele>469.7</ele>
        <time>2015-06-08T09:39:37Z</time>
      </trkpt>
      <trkpt lat="43.99112" lon="3.5039">
        <ele>469.7</ele>
        <time>2015-06-08T09:39:42Z</time>
      </trkpt>
      <trkpt lat="43.99116" lon="3.50385">
        <ele>469.31486496389</ele>
        <time>2015-06-08T09:39:47Z</time>
      </trkpt>
      <trkpt lat="43.99118" lon="3.5038">
        <ele>469.31486496389</ele>
        <time>2015-06-08T09:39:52Z</time>
      </trkpt>
      <trkpt lat="43.99122" lon="3.50375">
        <ele>471.66227921056</ele>
        <time>2015-06-08T09:39:57Z</time>
      </trkpt>
      <trkpt lat="43.99126" lon="3.50371">
        <ele>471.66227921056</ele>
        <time>2015-06-08T09:40:02Z</time>
      </trkpt>
      <trkpt lat="43.99129" lon="3.50368">
        <ele>471.66227921056</ele>
        <time>2015-06-08T09:40:07Z</time>
      </trkpt>
      <trkpt lat="43.99132" lon="3.50365">
        <ele>473.99484725317</ele>
        <time>2015-06-08T09:40:12Z</time>
      </trkpt>
      <trkpt lat="43.99136" lon="3.50361">
        <ele>473.99484725317</ele>
        <time>2015-06-08T09:40:17Z</time>
      </trkpt>
      <trkpt lat="43.99142" lon="3.50363">
        <ele>476.27454859001</ele>
        <time>2015-06-08T09:40:22Z</time>
      </trkpt>
      <trkpt lat="43.99143" lon="3.50362">
        <ele>476.27454859001</ele>
        <time>2015-06-08T09:40:27Z</time>
      </trkpt>
      <trkpt lat="43.99145" lon="3.50361">
        <ele>476.27454859001</ele>
        <time>2015-06-08T09:40:32Z</time>
      </trkpt>
      <trkpt lat="43.99144" lon="3.5036">
        <ele>476.27454859001</ele>
        <time>2015-06-08T09:40:37Z</time>
      </trkpt>
      <trkpt lat="43.99152" lon="3.50355">
        <ele>478.3961697084</ele>
        <time>2015-06-08T09:40:47Z</time>
      </trkpt>
      <trkpt lat="43.99158" lon="3.50359">
        <ele>478.3961697084</ele>
        <time>2015-06-08T09:40:52Z</time>
      </trkpt>
      <trkpt lat="43.99163" lon="3.50362">
        <ele>480.34279337705</ele>
        <time>2015-06-08T09:40:57Z</time>
      </trkpt>
      <trkpt lat="43.99169" lon="3.50362">
        <ele>480.34279337705</ele>
        <time>2015-06-08T09:41:02Z</time>
      </trkpt>
      <trkpt lat="43.99174" lon="3.50359">
        <ele>482.056218339</ele>
        <time>2015-06-08T09:41:07Z</time>
      </trkpt>
      <trkpt lat="43.99181" lon="3.50356">
        <ele>482.056218339</ele>
        <time>2015-06-08T09:41:12Z</time>
      </trkpt>
      <trkpt lat="43.99186" lon="3.50354">
        <ele>483.47248074239</ele>
        <time>2015-06-08T09:41:17Z</time>
      </trkpt>
      <trkpt lat="43.99192" lon="3.50353">
        <ele>483.47248074239</ele>
        <time>2015-06-08T09:41:22Z</time>
      </trkpt>
      <trkpt lat="43.99197" lon="3.50351">
        <ele>484.55280349696</ele>
        <time>2015-06-08T09:41:27Z</time>
      </trkpt>
      <trkpt lat="43.99202" lon="3.5035">
        <ele>484.55280349696</ele>
        <time>2015-06-08T09:41:32Z</time>
      </trkpt>
      <trkpt lat="43.99208" lon="3.50346">
        <ele>485.3028623721</ele>
        <time>2015-06-08T09:41:37Z</time>
      </trkpt>
      <trkpt lat="43.99215" lon="3.5034">
        <ele>485.3028623721</ele>
        <time>2015-06-08T09:41:42Z</time>
      </trkpt>
      <trkpt lat="43.99219" lon="3.50335">
        <ele>485.73618530521</ele>
        <time>2015-06-08T09:41:47Z</time>
      </trkpt>
      <trkpt lat="43.99226" lon="3.50331">
        <ele>485.73618530521</ele>
        <time>2015-06-08T09:41:52Z</time>
      </trkpt>
      <trkpt lat="43.99231" lon="3.50326">
        <ele>485.8700790261</ele>
        <time>2015-06-08T09:41:57Z</time>
      </trkpt>
      <trkpt lat="43.99237" lon="3.50323">
        <ele>485.8700790261</ele>
        <time>2015-06-08T09:42:02Z</time>
      </trkpt>
      <trkpt lat="43.99239" lon="3.50317">
        <ele>485.75232548119</ele>
        <time>2015-06-08T09:42:10Z</time>
      </trkpt>
      <trkpt lat="43.99241" lon="3.50313">
        <ele>485.75232548119</ele>
        <time>2015-06-08T09:42:15Z</time>
      </trkpt>
      <trkpt lat="43.99248" lon="3.50308">
        <ele>485.41862878386</ele>
        <time>2015-06-08T09:42:20Z</time>
      </trkpt>
      <trkpt lat="43.99249" lon="3.50306">
        <ele>485.41862878386</ele>
        <time>2015-06-08T09:42:22Z</time>
      </trkpt>
      <trkpt lat="43.99252" lon="3.50302">
        <ele>485.41862878386</ele>
        <time>2015-06-08T09:42:31Z</time>
      </trkpt>
      <trkpt lat="43.99264" lon="3.50296">
        <ele>484.98783523004</ele>
        <time>2015-06-08T09:42:32Z</time>
      </trkpt>
      <trkpt lat="43.99275" lon="3.50286">
        <ele>484.53280222738</ele>
        <time>2015-06-08T09:42:37Z</time>
      </trkpt>
      <trkpt lat="43.99282" lon="3.50285">
        <ele>484.53280222738</ele>
        <time>2015-06-08T09:42:42Z</time>
      </trkpt>
      <trkpt lat="43.99287" lon="3.50287">
        <ele>484.24524563986</ele>
        <time>2015-06-08T09:42:47Z</time>
      </trkpt>
      <trkpt lat="43.99292" lon="3.5029">
        <ele>484.24524563986</ele>
        <time>2015-06-08T09:42:52Z</time>
      </trkpt>
      <trkpt lat="43.99297" lon="3.50289">
        <ele>484.03010424617</ele>
        <time>2015-06-08T09:42:57Z</time>
      </trkpt>
      <trkpt lat="43.99301" lon="3.50285">
        <ele>484.03010424617</ele>
        <time>2015-06-08T09:43:02Z</time>
      </trkpt>
      <trkpt lat="43.99305" lon="3.50276">
        <ele>483.7669312987</ele>
        <time>2015-06-08T09:43:07Z</time>
      </trkpt>
      <trkpt lat="43.99311" lon="3.5027">
        <ele>483.7669312987</ele>
        <time>2015-06-08T09:43:12Z</time>
      </trkpt>
      <trkpt lat="43.99315" lon="3.50265">
        <ele>483.78666445803</ele>
        <time>2015-06-08T09:43:17Z</time>
      </trkpt>
      <trkpt lat="43.99318" lon="3.5026">
        <ele>483.78666445803</ele>
        <time>2015-06-08T09:43:22Z</time>
      </trkpt>
      <trkpt lat="43.99322" lon="3.50256">
        <ele>484.17246232174</ele>
        <time>2015-06-08T09:43:27Z</time>
      </trkpt>
      <trkpt lat="43.99325" lon="3.50252">
        <ele>484.17246232174</ele>
        <time>2015-06-08T09:43:32Z</time>
      </trkpt>
      <trkpt lat="43.99326" lon="3.50245">
        <ele>484.9775902035</ele>
        <time>2015-06-08T09:43:37Z</time>
      </trkpt>
      <trkpt lat="43.99327" lon="3.50238">
        <ele>484.9775902035</ele>
        <time>2015-06-08T09:43:42Z</time>
      </trkpt>
      <trkpt lat="43.99327" lon="3.50231">
        <ele>485.90109541204</ele>
        <time>2015-06-08T09:43:47Z</time>
      </trkpt>
      <trkpt lat="43.99326" lon="3.50225">
        <ele>485.90109541204</ele>
        <time>2015-06-08T09:43:52Z</time>
      </trkpt>
      <trkpt lat="43.99327" lon="3.50218">
        <ele>486.900678606</ele>
        <time>2015-06-08T09:43:57Z</time>
      </trkpt>
      <trkpt lat="43.99328" lon="3.50214">
        <ele>486.900678606</ele>
        <time>2015-06-08T09:44:02Z</time>
      </trkpt>
      <trkpt lat="43.99329" lon="3.5021">
        <ele>486.900678606</ele>
        <time>2015-06-08T09:44:07Z</time>
      </trkpt>
      <trkpt lat="43.9933" lon="3.50207">
        <ele>486.900678606</ele>
        <time>2015-06-08T09:44:12Z</time>
      </trkpt>
      <trkpt lat="43.99329" lon="3.50207">
        <ele>487.99705293232</ele>
        <time>2015-06-08T09:44:17Z</time>
      </trkpt>
      <trkpt lat="43.99324" lon="3.50205">
        <ele>487.99705293232</ele>
        <time>2015-06-08T09:44:47Z</time>
      </trkpt>
      <trkpt lat="43.99323" lon="3.50203">
        <ele>487.99705293232</ele>
        <time>2015-06-08T09:44:52Z</time>
      </trkpt>
      <trkpt lat="43.99323" lon="3.50203">
        <ele>487.99705293232</ele>
        <time>2015-06-08T09:44:57Z</time>
      </trkpt>
      <trkpt lat="43.99319" lon="3.50206">
        <ele>488.963486065</ele>
        <time>2015-06-08T09:45:02Z</time>
      </trkpt>
      <trkpt lat="43.99319" lon="3.50206">
        <ele>488.963486065</ele>
        <time>2015-06-08T09:45:07Z</time>
      </trkpt>
      <trkpt lat="43.99322" lon="3.502">
        <ele>488.963486065</ele>
        <time>2015-06-08T09:45:12Z</time>
      </trkpt>
      <trkpt lat="43.99325" lon="3.50194">
        <ele>489.7980659386</ele>
        <time>2015-06-08T09:45:17Z</time>
      </trkpt>
      <trkpt lat="43.99326" lon="3.50187">
        <ele>489.7980659386</ele>
        <time>2015-06-08T09:45:22Z</time>
      </trkpt>
      <trkpt lat="43.99328" lon="3.5018">
        <ele>490.45603170261</ele>
        <time>2015-06-08T09:45:27Z</time>
      </trkpt>
      <trkpt lat="43.99329" lon="3.50176">
        <ele>490.45603170261</ele>
        <time>2015-06-08T09:45:32Z</time>
      </trkpt>
      <trkpt lat="43.99333" lon="3.50166">
        <ele>490.89630666772</ele>
        <time>2015-06-08T09:45:37Z</time>
      </trkpt>
      <trkpt lat="43.99333" lon="3.50159">
        <ele>490.89630666772</ele>
        <time>2015-06-08T09:45:44Z</time>
      </trkpt>
      <trkpt lat="43.99328" lon="3.50156">
        <ele>491.19222890521</ele>
        <time>2015-06-08T09:45:53Z</time>
      </trkpt>
      <trkpt lat="43.99337" lon="3.50147">
        <ele>491.34039548779</ele>
        <time>2015-06-08T09:46:05Z</time>
      </trkpt>
      <trkpt lat="43.99338" lon="3.50146">
        <ele>491.34039548779</ele>
        <time>2015-06-08T09:46:07Z</time>
      </trkpt>
      <trkpt lat="43.9934" lon="3.50144">
        <ele>491.34039548779</ele>
        <time>2015-06-08T09:46:12Z</time>
      </trkpt>
      <trkpt lat="43.99338" lon="3.50147">
        <ele>491.34039548779</ele>
        <time>2015-06-08T09:46:17Z</time>
      </trkpt>
      <trkpt lat="43.99336" lon="3.50149">
        <ele>491.44821964592</ele>
        <time>2015-06-08T09:46:22Z</time>
      </trkpt>
      <trkpt lat="43.99341" lon="3.50146">
        <ele>491.44821964592</ele>
        <time>2015-06-08T09:46:27Z</time>
      </trkpt>
      <trkpt lat="43.99345" lon="3.50144">
        <ele>491.40683377489</ele>
        <time>2015-06-08T09:46:32Z</time>
      </trkpt>
      <trkpt lat="43.99351" lon="3.5014">
        <ele>491.40683377489</ele>
        <time>2015-06-08T09:46:37Z</time>
      </trkpt>
      <trkpt lat="43.99356" lon="3.50137">
        <ele>491.26803896812</ele>
        <time>2015-06-08T09:46:42Z</time>
      </trkpt>
      <trkpt lat="43.9936" lon="3.5013">
        <ele>491.26803896812</ele>
        <time>2015-06-08T09:46:47Z</time>
      </trkpt>
      <trkpt lat="43.99363" lon="3.50125">
        <ele>491.03872527886</ele>
        <time>2015-06-08T09:46:52Z</time>
      </trkpt>
      <trkpt lat="43.99372" lon="3.50121">
        <ele>491.03872527886</ele>
        <time>2015-06-08T09:46:57Z</time>
      </trkpt>
      <trkpt lat="43.99377" lon="3.50117">
        <ele>490.72589124122</ele>
        <time>2015-06-08T09:47:02Z</time>
      </trkpt>
      <trkpt lat="43.99381" lon="3.50115">
        <ele>490.72589124122</ele>
        <time>2015-06-08T09:47:07Z</time>
      </trkpt>
      <trkpt lat="43.99384" lon="3.50113">
        <ele>490.72589124122</ele>
        <time>2015-06-08T09:47:12Z</time>
      </trkpt>
      <trkpt lat="43.99389" lon="3.50113">
        <ele>490.40724802117</ele>
        <time>2015-06-08T09:47:17Z</time>
      </trkpt>
      <trkpt lat="43.99393" lon="3.50116">
        <ele>490.40724802117</ele>
        <time>2015-06-08T09:47:22Z</time>
      </trkpt>
      <trkpt lat="43.99398" lon="3.50118">
        <ele>490.04358676691</ele>
        <time>2015-06-08T09:47:27Z</time>
      </trkpt>
      <trkpt lat="43.994" lon="3.50118">
        <ele>490.04358676691</ele>
        <time>2015-06-08T09:47:32Z</time>
      </trkpt>
      <trkpt lat="43.99405" lon="3.50118">
        <ele>490.04358676691</ele>
        <time>2015-06-08T09:47:37Z</time>
      </trkpt>
      <trkpt lat="43.99408" lon="3.50119">
        <ele>489.74110679288</ele>
        <time>2015-06-08T09:47:42Z</time>
      </trkpt>
      <trkpt lat="43.99412" lon="3.50122">
        <ele>489.74110679288</ele>
        <time>2015-06-08T09:47:47Z</time>
      </trkpt>
      <trkpt lat="43.99416" lon="3.50128">
        <ele>489.38540982761</ele>
        <time>2015-06-08T09:47:52Z</time>
      </trkpt>
      <trkpt lat="43.99421" lon="3.50136">
        <ele>489.38540982761</ele>
        <time>2015-06-08T09:47:57Z</time>
      </trkpt>
      <trkpt lat="43.99431" lon="3.50153">
        <ele>489.46163871979</ele>
        <time>2015-06-08T09:48:22Z</time>
      </trkpt>
      <trkpt lat="43.99433" lon="3.5015">
        <ele>489.46163871979</ele>
        <time>2015-06-08T09:48:27Z</time>
      </trkpt>
      <trkpt lat="43.99437" lon="3.50148">
        <ele>489.46163871979</ele>
        <time>2015-06-08T09:48:33Z</time>
      </trkpt>
      <trkpt lat="43.99441" lon="3.50146">
        <ele>489.51115613742</ele>
        <time>2015-06-08T09:48:37Z</time>
      </trkpt>
      <trkpt lat="43.99446" lon="3.50142">
        <ele>489.51115613742</ele>
        <time>2015-06-08T09:48:45Z</time>
      </trkpt>
      <trkpt lat="43.99447" lon="3.50139">
        <ele>489.51115613742</ele>
        <time>2015-06-08T09:48:47Z</time>
      </trkpt>
      <trkpt lat="43.99472" lon="3.50128">
        <ele>489.71462212174</ele>
        <time>2015-06-08T09:49:14Z</time>
      </trkpt>
      <trkpt lat="43.99477" lon="3.50125">
        <ele>489.71462212174</ele>
        <time>2015-06-08T09:49:17Z</time>
      </trkpt>
      <trkpt lat="43.9948" lon="3.5012">
        <ele>489.96206098604</ele>
        <time>2015-06-08T09:49:22Z</time>
      </trkpt>
      <trkpt lat="43.99485" lon="3.50113">
        <ele>489.96206098604</ele>
        <time>2015-06-08T09:49:37Z</time>
      </trkpt>
      <trkpt lat="43.99508" lon="3.50096">
        <ele>490.32704405567</ele>
        <time>2015-06-08T09:49:53Z</time>
      </trkpt>
      <trkpt lat="43.99511" lon="3.50096">
        <ele>490.32704405567</ele>
        <time>2015-06-08T09:49:57Z</time>
      </trkpt>
      <trkpt lat="43.99529" lon="3.50099">
        <ele>490.68442749321</ele>
        <time>2015-06-08T09:50:22Z</time>
      </trkpt>
      <trkpt lat="43.99595" lon="3.50093">
        <ele>491.15572725749</ele>
        <time>2015-06-08T09:51:21Z</time>
      </trkpt>
      <trkpt lat="43.99597" lon="3.50092">
        <ele>491.15572725749</ele>
        <time>2015-06-08T09:51:22Z</time>
      </trkpt>
      <trkpt lat="43.99602" lon="3.50092">
        <ele>491.15572725749</ele>
        <time>2015-06-08T09:51:30Z</time>
      </trkpt>
      <trkpt lat="43.99604" lon="3.5009">
        <ele>491.64399333867</ele>
        <time>2015-06-08T09:51:32Z</time>
      </trkpt>
      <trkpt lat="43.99608" lon="3.5009">
        <ele>491.64399333867</ele>
        <time>2015-06-08T09:51:40Z</time>
      </trkpt>
      <trkpt lat="43.99609" lon="3.50091">
        <ele>491.64399333867</ele>
        <time>2015-06-08T09:51:42Z</time>
      </trkpt>
      <trkpt lat="43.99614" lon="3.50093">
        <ele>492.23887410557</ele>
        <time>2015-06-08T09:51:47Z</time>
      </trkpt>
      <trkpt lat="43.99616" lon="3.50094">
        <ele>492.23887410557</ele>
        <time>2015-06-08T09:51:52Z</time>
      </trkpt>
      <trkpt lat="43.99616" lon="3.50098">
        <ele>492.23887410557</ele>
        <time>2015-06-08T09:51:57Z</time>
      </trkpt>
      <trkpt lat="43.99612" lon="3.50101">
        <ele>493.14380930059</ele>
        <time>2015-06-08T09:52:02Z</time>
      </trkpt>
      <trkpt lat="43.99608" lon="3.50105">
        <ele>493.14380930059</ele>
        <time>2015-06-08T09:52:07Z</time>
      </trkpt>
      <trkpt lat="43.99608" lon="3.50104">
        <ele>493.14380930059</ele>
        <time>2015-06-08T09:52:12Z</time>
      </trkpt>
      <trkpt lat="43.99603" lon="3.50103">
        <ele>494.2443080821</ele>
        <time>2015-06-08T09:52:27Z</time>
      </trkpt>
      <trkpt lat="43.996" lon="3.50109">
        <ele>494.2443080821</ele>
        <time>2015-06-08T09:52:32Z</time>
      </trkpt>
      <trkpt lat="43.996" lon="3.50113">
        <ele>494.2443080821</ele>
        <time>2015-06-08T09:52:37Z</time>
      </trkpt>
      <trkpt lat="43.99602" lon="3.50118">
        <ele>495.56893288495</ele>
        <time>2015-06-08T09:52:42Z</time>
      </trkpt>
      <trkpt lat="43.99606" lon="3.5012">
        <ele>495.56893288495</ele>
        <time>2015-06-08T09:52:47Z</time>
      </trkpt>
      <trkpt lat="43.99612" lon="3.50122">
        <ele>497.03729465955</ele>
        <time>2015-06-08T09:52:52Z</time>
      </trkpt>
      <trkpt lat="43.99616" lon="3.50123">
        <ele>497.03729465955</ele>
        <time>2015-06-08T09:52:57Z</time>
      </trkpt>
      <trkpt lat="43.99623" lon="3.50125">
        <ele>498.63491159514</ele>
        <time>2015-06-08T09:53:02Z</time>
      </trkpt>
      <trkpt lat="43.99627" lon="3.50128">
        <ele>498.63491159514</ele>
        <time>2015-06-08T09:53:07Z</time>
      </trkpt>
      <trkpt lat="43.99631" lon="3.50131">
        <ele>500.13695587737</ele>
        <time>2015-06-08T09:53:12Z</time>
      </trkpt>
      <trkpt lat="43.99633" lon="3.50132">
        <ele>500.13695587737</ele>
        <time>2015-06-08T09:53:17Z</time>
      </trkpt>
      <trkpt lat="43.9964" lon="3.50138">
        <ele>501.60815044734</ele>
        <time>2015-06-08T09:53:22Z</time>
      </trkpt>
      <trkpt lat="43.99643" lon="3.50142">
        <ele>501.60815044734</ele>
        <time>2015-06-08T09:53:30Z</time>
      </trkpt>
      <trkpt lat="43.99669" lon="3.50151">
        <ele>503.24352562673</ele>
        <time>2015-06-08T09:54:07Z</time>
      </trkpt>
      <trkpt lat="43.99684" lon="3.50152">
        <ele>504.95162060639</ele>
        <time>2015-06-08T09:54:22Z</time>
      </trkpt>
      <trkpt lat="43.9969" lon="3.50154">
        <ele>504.95162060639</ele>
        <time>2015-06-08T09:54:27Z</time>
      </trkpt>
      <trkpt lat="43.99695" lon="3.50154">
        <ele>506.61851610721</ele>
        <time>2015-06-08T09:54:32Z</time>
      </trkpt>
      <trkpt lat="43.99743" lon="3.50142">
        <ele>509.27480040513</ele>
        <time>2015-06-08T09:55:22Z</time>
      </trkpt>
      <trkpt lat="43.99744" lon="3.50142">
        <ele>509.27480040513</ele>
        <time>2015-06-08T09:55:22Z</time>
      </trkpt>
      <trkpt lat="43.99747" lon="3.50143">
        <ele>509.27480040513</ele>
        <time>2015-06-08T09:55:27Z</time>
      </trkpt>
      <trkpt lat="43.99764" lon="3.50135">
        <ele>512.19329983697</ele>
        <time>2015-06-08T09:55:43Z</time>
      </trkpt>
      <trkpt lat="43.99787" lon="3.50128">
        <ele>515.28685395156</ele>
        <time>2015-06-08T09:56:05Z</time>
      </trkpt>
      <trkpt lat="43.99789" lon="3.50127">
        <ele>515.28685395156</ele>
        <time>2015-06-08T09:56:07Z</time>
      </trkpt>
      <trkpt lat="43.99793" lon="3.5012">
        <ele>515.28685395156</ele>
        <time>2015-06-08T09:56:12Z</time>
      </trkpt>
      <trkpt lat="43.99794" lon="3.50116">
        <ele>518.38644333672</ele>
        <time>2015-06-08T09:56:17Z</time>
      </trkpt>
      <trkpt lat="43.99798" lon="3.50114">
        <ele>518.38644333672</ele>
        <time>2015-06-08T09:56:25Z</time>
      </trkpt>
      <trkpt lat="43.99814" lon="3.501">
        <ele>521.38181038379</ele>
        <time>2015-06-08T09:56:54Z</time>
      </trkpt>
      <trkpt lat="43.99825" lon="3.50073">
        <ele>524.12816437517</ele>
        <time>2015-06-08T09:57:07Z</time>
      </trkpt>
      <trkpt lat="43.99827" lon="3.50068">
        <ele>524.12816437517</ele>
        <time>2015-06-08T09:57:19Z</time>
      </trkpt>
      <trkpt lat="43.99835" lon="3.50053">
        <ele>526.75839750039</ele>
        <time>2015-06-08T09:57:27Z</time>
      </trkpt>
      <trkpt lat="43.99835" lon="3.50053">
        <ele>526.75839750039</ele>
        <time>2015-06-08T09:57:35Z</time>
      </trkpt>
      <trkpt lat="43.99839" lon="3.50047">
        <ele>526.75839750039</ele>
        <time>2015-06-08T09:57:42Z</time>
      </trkpt>
      <trkpt lat="43.9984" lon="3.50048">
        <ele>526.75839750039</ele>
        <time>2015-06-08T09:57:47Z</time>
      </trkpt>
      <trkpt lat="43.9985" lon="3.50059">
        <ele>529.11586150674</ele>
        <time>2015-06-08T09:58:29Z</time>
      </trkpt>
      <trkpt lat="43.99856" lon="3.50069">
        <ele>531.55558933562</ele>
        <time>2015-06-08T09:58:46Z</time>
      </trkpt>
      <trkpt lat="43.99881" lon="3.50054">
        <ele>533.96484881696</ele>
        <time>2015-06-08T09:59:26Z</time>
      </trkpt>
      <trkpt lat="43.99883" lon="3.50053">
        <ele>533.96484881696</ele>
        <time>2015-06-08T09:59:28Z</time>
      </trkpt>
      <trkpt lat="43.99885" lon="3.50055">
        <ele>533.96484881696</ele>
        <time>2015-06-08T09:59:37Z</time>
      </trkpt>
      <trkpt lat="43.99888" lon="3.50051">
        <ele>533.96484881696</ele>
        <time>2015-06-08T09:59:59Z</time>
      </trkpt>
      <trkpt lat="43.99894" lon="3.50049">
        <ele>536.32780188613</ele>
        <time>2015-06-08T10:00:18Z</time>
      </trkpt>
      <trkpt lat="43.99894" lon="3.50044">
        <ele>536.32780188613</ele>
        <time>2015-06-08T10:00:32Z</time>
      </trkpt>
      <trkpt lat="43.99893" lon="3.50043">
        <ele>536.32780188613</ele>
        <time>2015-06-08T10:00:37Z</time>
      </trkpt>
      <trkpt lat="43.99909" lon="3.50006">
        <ele>539.00877975266</ele>
        <time>2015-06-08T10:01:32Z</time>
      </trkpt>
      <trkpt lat="43.99921" lon="3.50001">
        <ele>541.38248956992</ele>
        <time>2015-06-08T10:02:18Z</time>
      </trkpt>
      <trkpt lat="43.9993" lon="3.49996">
        <ele>544.22471020013</ele>
        <time>2015-06-08T10:02:24Z</time>
      </trkpt>
      <trkpt lat="43.99931" lon="3.50002">
        <ele>544.22471020013</ele>
        <time>2015-06-08T10:02:30Z</time>
      </trkpt>
      <trkpt lat="43.99954" lon="3.49988">
        <ele>548.16201564009</ele>
        <time>2015-06-08T10:03:17Z</time>
      </trkpt>
      <trkpt lat="43.99954" lon="3.49989">
        <ele>548.16201564009</ele>
        <time>2015-06-08T10:03:26Z</time>
      </trkpt>
      <trkpt lat="43.99965" lon="3.49985">
        <ele>551.78484291433</ele>
        <time>2015-06-08T10:03:27Z</time>
      </trkpt>
      <trkpt lat="43.9997" lon="3.49984">
        <ele>551.78484291433</ele>
        <time>2015-06-08T10:03:32Z</time>
      </trkpt>
      <trkpt lat="44" lon="3.49967">
        <ele>555.12560248627</ele>
        <time>2015-06-08T10:04:27Z</time>
      </trkpt>
      <trkpt lat="44.00008" lon="3.49969">
        <ele>555.12560248627</ele>
        <time>2015-06-08T10:04:34Z</time>
      </trkpt>
      <trkpt lat="44.00017" lon="3.49968">
        <ele>559.6610441141</ele>
        <time>2015-06-08T10:04:43Z</time>
      </trkpt>
      <trkpt lat="44.00026" lon="3.49971">
        <ele>563.89076044766</ele>
        <time>2015-06-08T10:05:29Z</time>
      </trkpt>
      <trkpt lat="44.00051" lon="3.49937">
        <ele>568.91361430348</ele>
        <time>2015-06-08T10:05:32Z</time>
      </trkpt>
      <trkpt lat="44.00059" lon="3.49914">
        <ele>573.72249819241</ele>
        <time>2015-06-08T10:06:32Z</time>
      </trkpt>
      <trkpt lat="44.00064" lon="3.49911">
        <ele>573.72249819241</ele>
        <time>2015-06-08T10:06:39Z</time>
      </trkpt>
      <trkpt lat="44.00061" lon="3.49915">
        <ele>578.09387662997</ele>
        <time>2015-06-08T10:06:52Z</time>
      </trkpt>
      <trkpt lat="44.00064" lon="3.49909">
        <ele>578.09387662997</ele>
        <time>2015-06-08T10:07:29Z</time>
      </trkpt>
      <trkpt lat="44.0007" lon="3.49905">
        <ele>582.32706539111</ele>
        <time>2015-06-08T10:07:33Z</time>
      </trkpt>
      <trkpt lat="44.00089" lon="3.49898">
        <ele>586.54089273008</ele>
        <time>2015-06-08T10:08:12Z</time>
      </trkpt>
      <trkpt lat="44.00097" lon="3.49887">
        <ele>590.68695967648</ele>
        <time>2015-06-08T10:08:32Z</time>
      </trkpt>
      <trkpt lat="44.00111" lon="3.49872">
        <ele>594.31709793237</ele>
        <time>2015-06-08T10:09:28Z</time>
      </trkpt>
      <trkpt lat="44.00119" lon="3.49903">
        <ele>600.03115135135</ele>
        <time>2015-06-08T10:09:32Z</time>
      </trkpt>
      <trkpt lat="44.00122" lon="3.49904">
        <ele>600.03115135135</ele>
        <time>2015-06-08T10:09:37Z</time>
      </trkpt>
      <trkpt lat="44.00122" lon="3.49905">
        <ele>600.03115135135</ele>
        <time>2015-06-08T10:09:42Z</time>
      </trkpt>
      <trkpt lat="44.00125" lon="3.49908">
        <ele>600.03115135135</ele>
        <time>2015-06-08T10:09:47Z</time>
      </trkpt>
      <trkpt lat="44.00127" lon="3.49908">
        <ele>600.03115135135</ele>
        <time>2015-06-08T10:09:52Z</time>
      </trkpt>
      <trkpt lat="44.00126" lon="3.49909">
        <ele>606.75733248448</ele>
        <time>2015-06-08T10:09:57Z</time>
      </trkpt>
      <trkpt lat="44.0014" lon="3.49908">
        <ele>613.13980252577</ele>
        <time>2015-06-08T10:10:34Z</time>
      </trkpt>
      <trkpt lat="44.00173" lon="3.49899">
        <ele>618.83185852322</ele>
        <time>2015-06-08T10:11:31Z</time>
      </trkpt>
      <trkpt lat="44.00174" lon="3.49898">
        <ele>618.83185852322</ele>
        <time>2015-06-08T10:11:32Z</time>
      </trkpt>
      <trkpt lat="44.0018" lon="3.49903">
        <ele>618.83185852322</ele>
        <time>2015-06-08T10:12:20Z</time>
      </trkpt>
      <trkpt lat="44.00201" lon="3.49904">
        <ele>625.48974141937</ele>
        <time>2015-06-08T10:12:32Z</time>
      </trkpt>
      <trkpt lat="44.00201" lon="3.49904">
        <ele>625.48974141937</ele>
        <time>2015-06-08T10:12:45Z</time>
      </trkpt>
      <trkpt lat="44.0022" lon="3.49897">
        <ele>631.93492390408</ele>
        <time>2015-06-08T10:13:20Z</time>
      </trkpt>
      <trkpt lat="44.00229" lon="3.4989">
        <ele>638.46051931057</ele>
        <time>2015-06-08T10:14:09Z</time>
      </trkpt>
      <trkpt lat="44.00254" lon="3.49889">
        <ele>644.4873775823</ele>
        <time>2015-06-08T10:14:32Z</time>
      </trkpt>
      <trkpt lat="44.00259" lon="3.49886">
        <ele>644.4873775823</ele>
        <time>2015-06-08T10:14:40Z</time>
      </trkpt>
      <trkpt lat="44.0026" lon="3.49883">
        <ele>644.4873775823</ele>
        <time>2015-06-08T10:14:42Z</time>
      </trkpt>
      <trkpt lat="44.00262" lon="3.4988">
        <ele>649.85549224733</ele>
        <time>2015-06-08T10:14:54Z</time>
      </trkpt>
      <trkpt lat="44.00281" lon="3.49862">
        <ele>654.82260395399</ele>
        <time>2015-06-08T10:15:07Z</time>
      </trkpt>
      <trkpt lat="44.00283" lon="3.49857">
        <ele>654.82260395399</ele>
        <time>2015-06-08T10:15:17Z</time>
      </trkpt>
      <trkpt lat="44.00284" lon="3.49855">
        <ele>654.82260395399</ele>
        <time>2015-06-08T10:15:26Z</time>
      </trkpt>
      <trkpt lat="44.00288" lon="3.49852">
        <ele>659.54246710828</ele>
        <time>2015-06-08T10:15:32Z</time>
      </trkpt>
      <trkpt lat="44.00309" lon="3.49853">
        <ele>664.20184192702</ele>
        <time>2015-06-08T10:16:07Z</time>
      </trkpt>
      <trkpt lat="44.0031" lon="3.49854">
        <ele>664.20184192702</ele>
        <time>2015-06-08T10:16:07Z</time>
      </trkpt>
      <trkpt lat="44.00329" lon="3.49852">
        <ele>668.64250044113</ele>
        <time>2015-06-08T10:16:33Z</time>
      </trkpt>
      <trkpt lat="44.00337" lon="3.49859">
        <ele>668.64250044113</ele>
        <time>2015-06-08T10:17:00Z</time>
      </trkpt>
      <trkpt lat="44.00338" lon="3.49859">
        <ele>673.15147636606</ele>
        <time>2015-06-08T10:17:05Z</time>
      </trkpt>
      <trkpt lat="44.00353" lon="3.49863">
        <ele>677.33127532391</ele>
        <time>2015-06-08T10:17:17Z</time>
      </trkpt>
      <trkpt lat="44.00363" lon="3.49863">
        <ele>681.13215413669</ele>
        <time>2015-06-08T10:17:32Z</time>
      </trkpt>
      <trkpt lat="44.00369" lon="3.49856">
        <ele>681.13215413669</ele>
        <time>2015-06-08T10:17:54Z</time>
      </trkpt>
      <trkpt lat="44.0038" lon="3.49859">
        <ele>684.99977342416</ele>
        <time>2015-06-08T10:18:16Z</time>
      </trkpt>
      <trkpt lat="44.00391" lon="3.49851">
        <ele>688.58258384629</ele>
        <time>2015-06-08T10:18:34Z</time>
      </trkpt>
      <trkpt lat="44.00391" lon="3.49851">
        <ele>688.58258384629</ele>
        <time>2015-06-08T10:18:37Z</time>
      </trkpt>
      <trkpt lat="44.00404" lon="3.49851">
        <ele>691.93093479656</ele>
        <time>2015-06-08T10:19:06Z</time>
      </trkpt>
      <trkpt lat="44.00414" lon="3.49847">
        <ele>695.20770863945</ele>
        <time>2015-06-08T10:19:21Z</time>
      </trkpt>
      <trkpt lat="44.00414" lon="3.49847">
        <ele>695.20770863945</ele>
        <time>2015-06-08T10:19:23Z</time>
      </trkpt>
      <trkpt lat="44.00415" lon="3.49846">
        <ele>695.20770863945</ele>
        <time>2015-06-08T10:19:31Z</time>
      </trkpt>
      <trkpt lat="44.00415" lon="3.49845">
        <ele>695.20770863945</ele>
        <time>2015-06-08T10:19:32Z</time>
      </trkpt>
      <trkpt lat="44.00424" lon="3.49845">
        <ele>698.30456612061</ele>
        <time>2015-06-08T10:19:42Z</time>
      </trkpt>
      <trkpt lat="44.0043" lon="3.49844">
        <ele>698.30456612061</ele>
        <time>2015-06-08T10:20:07Z</time>
      </trkpt>
      <trkpt lat="44.00445" lon="3.4986">
        <ele>701.85731621259</ele>
        <time>2015-06-08T10:20:32Z</time>
      </trkpt>
      <trkpt lat="44.00446" lon="3.49861">
        <ele>701.85731621259</ele>
        <time>2015-06-08T10:20:42Z</time>
      </trkpt>
      <trkpt lat="44.00466" lon="3.49858">
        <ele>705.9490481222</ele>
        <time>2015-06-08T10:21:32Z</time>
      </trkpt>
      <trkpt lat="44.00467" lon="3.49855">
        <ele>705.9490481222</ele>
        <time>2015-06-08T10:21:40Z</time>
      </trkpt>
      <trkpt lat="44.00468" lon="3.49855">
        <ele>705.9490481222</ele>
        <time>2015-06-08T10:21:42Z</time>
      </trkpt>
      <trkpt lat="44.00467" lon="3.49855">
        <ele>705.9490481222</ele>
        <time>2015-06-08T10:21:53Z</time>
      </trkpt>
      <trkpt lat="44.00512" lon="3.49848">
        <ele>711.92432546743</ele>
        <time>2015-06-08T10:23:27Z</time>
      </trkpt>
      <trkpt lat="44.00514" lon="3.49844">
        <ele>711.92432546743</ele>
        <time>2015-06-08T10:23:41Z</time>
      </trkpt>
      <trkpt lat="44.00534" lon="3.49826">
        <ele>717.90885403796</ele>
        <time>2015-06-08T10:24:33Z</time>
      </trkpt>
      <trkpt lat="44.00563" lon="3.4982">
        <ele>724.71866357617</ele>
        <time>2015-06-08T10:25:37Z</time>
      </trkpt>
      <trkpt lat="44.00567" lon="3.49824">
        <ele>724.71866357617</ele>
        <time>2015-06-08T10:25:45Z</time>
      </trkpt>
      <trkpt lat="44.00567" lon="3.49826">
        <ele>724.71866357617</ele>
        <time>2015-06-08T10:25:47Z</time>
      </trkpt>
      <trkpt lat="44.00568" lon="3.49827">
        <ele>724.71866357617</ele>
        <time>2015-06-08T10:26:32Z</time>
      </trkpt>
      <trkpt lat="44.0059" lon="3.49812">
        <ele>731.65125753481</ele>
        <time>2015-06-08T10:26:39Z</time>
      </trkpt>
      <trkpt lat="44.00606" lon="3.49831">
        <ele>738.90631731811</ele>
        <time>2015-06-08T10:27:27Z</time>
      </trkpt>
      <trkpt lat="44.00608" lon="3.49835">
        <ele>738.90631731811</ele>
        <time>2015-06-08T10:27:32Z</time>
      </trkpt>
      <trkpt lat="44.00609" lon="3.49841">
        <ele>738.90631731811</ele>
        <time>2015-06-08T10:27:37Z</time>
      </trkpt>
      <trkpt lat="44.0061" lon="3.49844">
        <ele>746.16348560791</ele>
        <time>2015-06-08T10:27:47Z</time>
      </trkpt>
      <trkpt lat="44.0061" lon="3.49845">
        <ele>746.16348560791</ele>
        <time>2015-06-08T10:27:52Z</time>
      </trkpt>
      <trkpt lat="44.00609" lon="3.49852">
        <ele>746.16348560791</ele>
        <time>2015-06-08T10:27:57Z</time>
      </trkpt>
      <trkpt lat="44.00611" lon="3.49855">
        <ele>746.16348560791</ele>
        <time>2015-06-08T10:28:04Z</time>
      </trkpt>
      <trkpt lat="44.00607" lon="3.49868">
        <ele>752.99641751854</ele>
        <time>2015-06-08T10:28:22Z</time>
      </trkpt>
      <trkpt lat="44.00603" lon="3.4988">
        <ele>759.28541769247</ele>
        <time>2015-06-08T10:28:48Z</time>
      </trkpt>
      <trkpt lat="44.00603" lon="3.4988">
        <ele>759.28541769247</ele>
        <time>2015-06-08T10:28:53Z</time>
      </trkpt>
      <trkpt lat="44.00603" lon="3.49881">
        <ele>759.28541769247</ele>
        <time>2015-06-08T10:29:00Z</time>
      </trkpt>
      <trkpt lat="44.00614" lon="3.49901">
        <ele>765.20959874277</ele>
        <time>2015-06-08T10:29:39Z</time>
      </trkpt>
      <trkpt lat="44.00615" lon="3.49912">
        <ele>765.20959874277</ele>
        <time>2015-06-08T10:30:17Z</time>
      </trkpt>
      <trkpt lat="44.00617" lon="3.49919">
        <ele>771.08023054488</ele>
        <time>2015-06-08T10:30:26Z</time>
      </trkpt>
      <trkpt lat="44.0062" lon="3.4992">
        <ele>771.08023054488</ele>
        <time>2015-06-08T10:30:37Z</time>
      </trkpt>
      <trkpt lat="44.00629" lon="3.49929">
        <ele>776.29234917678</ele>
        <time>2015-06-08T10:31:26Z</time>
      </trkpt>
      <trkpt lat="44.00654" lon="3.49951">
        <ele>783.17019265366</ele>
        <time>2015-06-08T10:32:39Z</time>
      </trkpt>
      <trkpt lat="44.00655" lon="3.4996">
        <ele>783.17019265366</ele>
        <time>2015-06-08T10:33:35Z</time>
      </trkpt>
      <trkpt lat="44.00644" lon="3.49985">
        <ele>790.80697658385</ele>
        <time>2015-06-08T10:33:37Z</time>
      </trkpt>
      <trkpt lat="44.00636" lon="3.50004">
        <ele>797.61123056657</ele>
        <time>2015-06-08T10:34:35Z</time>
      </trkpt>
      <trkpt lat="44.00641" lon="3.5002">
        <ele>804.58996003109</ele>
        <time>2015-06-08T10:34:37Z</time>
      </trkpt>
      <trkpt lat="44.00638" lon="3.50027">
        <ele>804.58996003109</ele>
        <time>2015-06-08T10:35:34Z</time>
      </trkpt>
      <trkpt lat="44.00639" lon="3.50013">
        <ele>812.0416875479</ele>
        <time>2015-06-08T10:35:37Z</time>
      </trkpt>
      <trkpt lat="44.00619" lon="3.50049">
        <ele>821.32275038449</ele>
        <time>2015-06-08T10:36:37Z</time>
      </trkpt>
      <trkpt lat="44.00616" lon="3.50054">
        <ele>821.32275038449</ele>
        <time>2015-06-08T10:36:48Z</time>
      </trkpt>
      <trkpt lat="44.00604" lon="3.50062">
        <ele>830.12518487531</ele>
        <time>2015-06-08T10:37:03Z</time>
      </trkpt>
      <trkpt lat="44.00597" lon="3.50075">
        <ele>838.37307699174</ele>
        <time>2015-06-08T10:37:32Z</time>
      </trkpt>
      <trkpt lat="44.0059" lon="3.5008">
        <ele>838.37307699174</ele>
        <time>2015-06-08T10:37:41Z</time>
      </trkpt>
      <trkpt lat="44.00589" lon="3.50082">
        <ele>846.21403957272</ele>
        <time>2015-06-08T10:37:42Z</time>
      </trkpt>
      <trkpt lat="44.00577" lon="3.50082">
        <ele>853.5700403094</ele>
        <time>2015-06-08T10:38:13Z</time>
      </trkpt>
      <trkpt lat="44.00573" lon="3.50088">
        <ele>853.5700403094</ele>
        <time>2015-06-08T10:38:28Z</time>
      </trkpt>
      <trkpt lat="44.00564" lon="3.50089">
        <ele>860.41361011794</ele>
        <time>2015-06-08T10:38:37Z</time>
      </trkpt>
      <trkpt lat="44.00552" lon="3.5011">
        <ele>866.3895096774</ele>
        <time>2015-06-08T10:39:42Z</time>
      </trkpt>
      <trkpt lat="44.00546" lon="3.50099">
        <ele>872.74208585563</ele>
        <time>2015-06-08T10:39:58Z</time>
      </trkpt>
      <trkpt lat="44.00538" lon="3.50093">
        <ele>878.17352145123</ele>
        <time>2015-06-08T10:40:49Z</time>
      </trkpt>
      <trkpt lat="44.00542" lon="3.50087">
        <ele>878.17352145123</ele>
        <time>2015-06-08T10:40:52Z</time>
      </trkpt>
      <trkpt lat="44.0054" lon="3.50088">
        <ele>878.17352145123</ele>
        <time>2015-06-08T10:41:07Z</time>
      </trkpt>
      <trkpt lat="44.00541" lon="3.50085">
        <ele>883.48729132238</ele>
        <time>2015-06-08T10:41:08Z</time>
      </trkpt>
      <trkpt lat="44.00549" lon="3.50111">
        <ele>887.95841642019</ele>
        <time>2015-06-08T10:41:55Z</time>
      </trkpt>
      <trkpt lat="44.00548" lon="3.50112">
        <ele>887.95841642019</ele>
        <time>2015-06-08T10:42:00Z</time>
      </trkpt>
      <trkpt lat="44.00556" lon="3.50149">
        <ele>892.05619616062</ele>
        <time>2015-06-08T10:42:53Z</time>
      </trkpt>
      <trkpt lat="44.00562" lon="3.50149">
        <ele>892.05619616062</ele>
        <time>2015-06-08T10:43:00Z</time>
      </trkpt>
      <trkpt lat="44.00573" lon="3.50157">
        <ele>895.91401219382</ele>
        <time>2015-06-08T10:43:28Z</time>
      </trkpt>
      <trkpt lat="44.00582" lon="3.50164">
        <ele>899.69947648633</ele>
        <time>2015-06-08T10:43:51Z</time>
      </trkpt>
      <trkpt lat="44.00588" lon="3.50164">
        <ele>899.69947648633</ele>
        <time>2015-06-08T10:44:07Z</time>
      </trkpt>
      <trkpt lat="44.00596" lon="3.50177">
        <ele>903.13584510601</ele>
        <time>2015-06-08T10:44:49Z</time>
      </trkpt>
      <trkpt lat="44.006" lon="3.5018">
        <ele>903.13584510601</ele>
        <time>2015-06-08T10:44:49Z</time>
      </trkpt>
      <trkpt lat="44.00601" lon="3.50179">
        <ele>903.13584510601</ele>
        <time>2015-06-08T10:44:56Z</time>
      </trkpt>
      <trkpt lat="44.00603" lon="3.50175">
        <ele>906.28479963353</ele>
        <time>2015-06-08T10:44:57Z</time>
      </trkpt>
      <trkpt lat="44.00613" lon="3.50179">
        <ele>908.94493144996</ele>
        <time>2015-06-08T10:45:22Z</time>
      </trkpt>
      <trkpt lat="44.00637" lon="3.50163">
        <ele>911.16159264785</ele>
        <time>2015-06-08T10:45:52Z</time>
      </trkpt>
      <trkpt lat="44.0064" lon="3.5016">
        <ele>911.16159264785</ele>
        <time>2015-06-08T10:46:00Z</time>
      </trkpt>
      <trkpt lat="44.00643" lon="3.50158">
        <ele>911.16159264785</ele>
        <time>2015-06-08T10:46:02Z</time>
      </trkpt>
      <trkpt lat="44.00645" lon="3.50159">
        <ele>911.16159264785</ele>
        <time>2015-06-08T10:46:07Z</time>
      </trkpt>
      <trkpt lat="44.00648" lon="3.50162">
        <ele>913.3527288037</ele>
        <time>2015-06-08T10:46:15Z</time>
      </trkpt>
      <trkpt lat="44.00649" lon="3.50163">
        <ele>913.3527288037</ele>
        <time>2015-06-08T10:46:17Z</time>
      </trkpt>
      <trkpt lat="44.00649" lon="3.50163">
        <ele>913.3527288037</ele>
        <time>2015-06-08T10:46:24Z</time>
      </trkpt>
      <trkpt lat="44.00651" lon="3.50164">
        <ele>913.3527288037</ele>
        <time>2015-06-08T10:46:34Z</time>
      </trkpt>
      <trkpt lat="44.00672" lon="3.50187">
        <ele>915.70384917814</ele>
        <time>2015-06-08T10:46:54Z</time>
      </trkpt>
      <trkpt lat="44.00672" lon="3.50187">
        <ele>915.70384917814</ele>
        <time>2015-06-08T10:46:59Z</time>
      </trkpt>
      <trkpt lat="44.00695" lon="3.50196">
        <ele>918.02602576257</ele>
        <time>2015-06-08T10:47:34Z</time>
      </trkpt>
      <trkpt lat="44.00721" lon="3.50211">
        <ele>920.15860146495</ele>
        <time>2015-06-08T10:48:01Z</time>
      </trkpt>
      <trkpt lat="44.00756" lon="3.50261">
        <ele>922.4575313308</ele>
        <time>2015-06-08T10:48:57Z</time>
      </trkpt>
      <trkpt lat="44.00755" lon="3.50271">
        <ele>922.4575313308</ele>
        <time>2015-06-08T10:49:08Z</time>
      </trkpt>
      <trkpt lat="44.00756" lon="3.50304">
        <ele>924.48820061715</ele>
        <time>2015-06-08T10:49:54Z</time>
      </trkpt>
      <trkpt lat="44.00758" lon="3.50307">
        <ele>924.48820061715</ele>
        <time>2015-06-08T10:50:00Z</time>
      </trkpt>
      <trkpt lat="44.00775" lon="3.50373">
        <ele>926.26644154956</ele>
        <time>2015-06-08T10:50:56Z</time>
      </trkpt>
      <trkpt lat="44.00776" lon="3.50373">
        <ele>926.26644154956</ele>
        <time>2015-06-08T10:51:00Z</time>
      </trkpt>
      <trkpt lat="44.00778" lon="3.50373">
        <ele>926.26644154956</ele>
        <time>2015-06-08T10:51:05Z</time>
      </trkpt>
      <trkpt lat="44.00778" lon="3.50373">
        <ele>926.26644154956</ele>
        <time>2015-06-08T10:51:08Z</time>
      </trkpt>
      <trkpt lat="44.00785" lon="3.50411">
        <ele>927.77862272819</ele>
        <time>2015-06-08T10:51:57Z</time>
      </trkpt>
      <trkpt lat="44.00782" lon="3.50415">
        <ele>927.77862272819</ele>
        <time>2015-06-08T10:52:05Z</time>
      </trkpt>
      <trkpt lat="44.00783" lon="3.50415">
        <ele>927.77862272819</ele>
        <time>2015-06-08T10:52:07Z</time>
      </trkpt>
      <trkpt lat="44.00776" lon="3.50414">
        <ele>928.83971764782</ele>
        <time>2015-06-08T10:52:18Z</time>
      </trkpt>
      <trkpt lat="44.00774" lon="3.50414">
        <ele>928.83971764782</ele>
        <time>2015-06-08T10:52:22Z</time>
      </trkpt>
      <trkpt lat="44.00773" lon="3.50415">
        <ele>928.83971764782</ele>
        <time>2015-06-08T10:52:27Z</time>
      </trkpt>
      <trkpt lat="44.00766" lon="3.50409">
        <ele>930.08637383792</ele>
        <time>2015-06-08T10:52:32Z</time>
      </trkpt>
      <trkpt lat="44.00764" lon="3.50406">
        <ele>930.08637383792</ele>
        <time>2015-06-08T10:52:37Z</time>
      </trkpt>
      <trkpt lat="44.00761" lon="3.50405">
        <ele>930.08637383792</ele>
        <time>2015-06-08T10:52:42Z</time>
      </trkpt>
      <trkpt lat="44.00759" lon="3.50402">
        <ele>931.32948686887</ele>
        <time>2015-06-08T10:52:47Z</time>
      </trkpt>
      <trkpt lat="44.00757" lon="3.50402">
        <ele>931.32948686887</ele>
        <time>2015-06-08T10:52:52Z</time>
      </trkpt>
      <trkpt lat="44.00757" lon="3.50394">
        <ele>931.32948686887</ele>
        <time>2015-06-08T10:53:02Z</time>
      </trkpt>
      <trkpt lat="44.00751" lon="3.50391">
        <ele>932.36477062242</ele>
        <time>2015-06-08T10:53:07Z</time>
      </trkpt>
      <trkpt lat="44.00746" lon="3.50391">
        <ele>932.36477062242</ele>
        <time>2015-06-08T10:53:12Z</time>
      </trkpt>
      <trkpt lat="44.00742" lon="3.50388">
        <ele>933.23383435188</ele>
        <time>2015-06-08T10:53:17Z</time>
      </trkpt>
      <trkpt lat="44.0074" lon="3.50388">
        <ele>933.23383435188</ele>
        <time>2015-06-08T10:53:22Z</time>
      </trkpt>
      <trkpt lat="44.00735" lon="3.50381">
        <ele>933.23383435188</ele>
        <time>2015-06-08T10:53:42Z</time>
      </trkpt>
      <trkpt lat="44.00726" lon="3.50378">
        <ele>933.81687887074</ele>
        <time>2015-06-08T10:53:57Z</time>
      </trkpt>
      <trkpt lat="44.00723" lon="3.50376">
        <ele>933.81687887074</ele>
        <time>2015-06-08T10:54:02Z</time>
      </trkpt>
      <trkpt lat="44.00719" lon="3.50379">
        <ele>933.81687887074</ele>
        <time>2015-06-08T10:54:12Z</time>
      </trkpt>
      <trkpt lat="44.00719" lon="3.50379">
        <ele>933.81687887074</ele>
        <time>2015-06-08T10:54:12Z</time>
      </trkpt>
      <trkpt lat="44.00709" lon="3.50387">
        <ele>934.11869146186</ele>
        <time>2015-06-08T10:54:35Z</time>
      </trkpt>
      <trkpt lat="44.00708" lon="3.50387">
        <ele>934.11869146186</ele>
        <time>2015-06-08T10:54:45Z</time>
      </trkpt>
      <trkpt lat="44.00703" lon="3.50392">
        <ele>934.11869146186</ele>
        <time>2015-06-08T10:54:45Z</time>
      </trkpt>
      <trkpt lat="44.00697" lon="3.50401">
        <ele>934.21623081576</ele>
        <time>2015-06-08T10:54:57Z</time>
      </trkpt>
      <trkpt lat="44.00696" lon="3.50404">
        <ele>934.21623081576</ele>
        <time>2015-06-08T10:55:02Z</time>
      </trkpt>
      <trkpt lat="44.00694" lon="3.5041">
        <ele>934.21623081576</ele>
        <time>2015-06-08T10:55:09Z</time>
      </trkpt>
      <trkpt lat="44.00696" lon="3.50414">
        <ele>934.10898133358</ele>
        <time>2015-06-08T10:55:12Z</time>
      </trkpt>
      <trkpt lat="44.00697" lon="3.50415">
        <ele>934.10898133358</ele>
        <time>2015-06-08T10:55:20Z</time>
      </trkpt>
      <trkpt lat="44.00694" lon="3.5041">
        <ele>934.10898133358</ele>
        <time>2015-06-08T10:55:55Z</time>
      </trkpt>
      <trkpt lat="44.00694" lon="3.50408">
        <ele>934.10898133358</ele>
        <time>2015-06-08T10:55:57Z</time>
      </trkpt>
      <trkpt lat="44.00696" lon="3.50405">
        <ele>934.45960835112</ele>
        <time>2015-06-08T10:56:02Z</time>
      </trkpt>
      <trkpt lat="44.00698" lon="3.50403">
        <ele>934.45960835112</ele>
        <time>2015-06-08T10:56:07Z</time>
      </trkpt>
      <trkpt lat="44.00702" lon="3.504">
        <ele>934.45960835112</ele>
        <time>2015-06-08T10:56:12Z</time>
      </trkpt>
      <trkpt lat="44.00704" lon="3.50396">
        <ele>934.38167604131</ele>
        <time>2015-06-08T10:56:17Z</time>
      </trkpt>
      <trkpt lat="44.00706" lon="3.50392">
        <ele>934.38167604131</ele>
        <time>2015-06-08T10:56:22Z</time>
      </trkpt>
      <trkpt lat="44.00706" lon="3.50393">
        <ele>934.38167604131</ele>
        <time>2015-06-08T10:56:27Z</time>
      </trkpt>
      <trkpt lat="44.00706" lon="3.50395">
        <ele>934.38167604131</ele>
        <time>2015-06-08T10:56:32Z</time>
      </trkpt>
      <trkpt lat="44.00704" lon="3.504">
        <ele>934.04907411389</ele>
        <time>2015-06-08T10:56:37Z</time>
      </trkpt>
      <trkpt lat="44.00696" lon="3.50413">
        <ele>933.58001397986</ele>
        <time>2015-06-08T10:56:57Z</time>
      </trkpt>
      <trkpt lat="44.00697" lon="3.50415">
        <ele>933.58001397986</ele>
        <time>2015-06-08T10:57:02Z</time>
      </trkpt>
      <trkpt lat="44.00697" lon="3.50418">
        <ele>933.58001397986</ele>
        <time>2015-06-08T10:57:13Z</time>
      </trkpt>
      <trkpt lat="44.00712" lon="3.5044">
        <ele>933.96309756178</ele>
        <time>2015-06-08T11:02:59Z</time>
      </trkpt>
      <trkpt lat="44.00706" lon="3.50463">
        <ele>934.31011253623</ele>
        <time>2015-06-08T11:03:49Z</time>
      </trkpt>
      <trkpt lat="44.00704" lon="3.50474">
        <ele>934.31011253623</ele>
        <time>2015-06-08T11:04:02Z</time>
      </trkpt>
      <trkpt lat="44.00705" lon="3.50481">
        <ele>934.64805719348</ele>
        <time>2015-06-08T11:04:07Z</time>
      </trkpt>
      <trkpt lat="44.007" lon="3.5049">
        <ele>934.64805719348</ele>
        <time>2015-06-08T11:04:37Z</time>
      </trkpt>
      <trkpt lat="44.00698" lon="3.50491">
        <ele>936.14005462097</ele>
        <time>2015-06-08T11:05:22Z</time>
      </trkpt>
      <trkpt lat="44.00703" lon="3.5049">
        <ele>936.14005462097</ele>
        <time>2015-06-08T11:05:27Z</time>
      </trkpt>
      <trkpt lat="44.00736" lon="3.50488">
        <ele>938.34697928619</ele>
        <time>2015-06-08T11:05:57Z</time>
      </trkpt>
      <trkpt lat="44.00779" lon="3.50503">
        <ele>941.04692218846</ele>
        <time>2015-06-08T11:06:48Z</time>
      </trkpt>
      <trkpt lat="44.00792" lon="3.50506">
        <ele>943.5281364313</ele>
        <time>2015-06-08T11:07:02Z</time>
      </trkpt>
      <trkpt lat="44.008" lon="3.50507">
        <ele>943.5281364313</ele>
        <time>2015-06-08T11:07:11Z</time>
      </trkpt>
      <trkpt lat="44.00854" lon="3.50527">
        <ele>946.42843047549</ele>
        <time>2015-06-08T11:08:02Z</time>
      </trkpt>
      <trkpt lat="44.00868" lon="3.50528">
        <ele>949.054666418</ele>
        <time>2015-06-08T11:08:22Z</time>
      </trkpt>
      <trkpt lat="44.0091" lon="3.5053">
        <ele>951.74504607511</ele>
        <time>2015-06-08T11:09:02Z</time>
      </trkpt>
      <trkpt lat="44.00917" lon="3.50529">
        <ele>951.74504607511</ele>
        <time>2015-06-08T11:09:14Z</time>
      </trkpt>
      <trkpt lat="44.00976" lon="3.50512">
        <ele>954.38012916835</ele>
        <time>2015-06-08T11:10:02Z</time>
      </trkpt>
      <trkpt lat="44.01007" lon="3.50497">
        <ele>957.43999759557</ele>
        <time>2015-06-08T11:10:52Z</time>
      </trkpt>
      <trkpt lat="44.01015" lon="3.50496">
        <ele>957.43999759557</ele>
        <time>2015-06-08T11:11:03Z</time>
      </trkpt>
      <trkpt lat="44.01016" lon="3.50496">
        <ele>960.47454208412</ele>
        <time>2015-06-08T11:11:17Z</time>
      </trkpt>
      <trkpt lat="44.01032" lon="3.5049">
        <ele>962.7927538057</ele>
        <time>2015-06-08T11:12:02Z</time>
      </trkpt>
      <trkpt lat="44.01068" lon="3.50517">
        <ele>965.21171163811</ele>
        <time>2015-06-08T11:13:02Z</time>
      </trkpt>
      <trkpt lat="44.01072" lon="3.50518">
        <ele>965.21171163811</ele>
        <time>2015-06-08T11:13:12Z</time>
      </trkpt>
      <trkpt lat="44.01089" lon="3.50529">
        <ele>967.4503987216</ele>
        <time>2015-06-08T11:13:27Z</time>
      </trkpt>
      <trkpt lat="44.01122" lon="3.50541">
        <ele>969.68110472772</ele>
        <time>2015-06-08T11:14:02Z</time>
      </trkpt>
      <trkpt lat="44.01139" lon="3.50547">
        <ele>971.81833233784</ele>
        <time>2015-06-08T11:14:24Z</time>
      </trkpt>
      <trkpt lat="44.0114" lon="3.50549">
        <ele>971.81833233784</ele>
        <time>2015-06-08T11:14:35Z</time>
      </trkpt>
      <trkpt lat="44.01152" lon="3.50551">
        <ele>973.95590780932</ele>
        <time>2015-06-08T11:14:42Z</time>
      </trkpt>
      <trkpt lat="44.01167" lon="3.50552">
        <ele>975.93563245596</ele>
        <time>2015-06-08T11:15:00Z</time>
      </trkpt>
      <trkpt lat="44.01168" lon="3.50553">
        <ele>975.93563245596</ele>
        <time>2015-06-08T11:15:01Z</time>
      </trkpt>
      <trkpt lat="44.01174" lon="3.50549">
        <ele>975.93563245596</ele>
        <time>2015-06-08T11:15:02Z</time>
      </trkpt>
      <trkpt lat="44.01179" lon="3.50545">
        <ele>977.78417177821</ele>
        <time>2015-06-08T11:15:16Z</time>
      </trkpt>
      <trkpt lat="44.01184" lon="3.50548">
        <ele>977.78417177821</ele>
        <time>2015-06-08T11:15:17Z</time>
      </trkpt>
      <trkpt lat="44.012" lon="3.5056">
        <ele>979.61294219563</ele>
        <time>2015-06-08T11:15:42Z</time>
      </trkpt>
      <trkpt lat="44.0122" lon="3.50561">
        <ele>981.35217976901</ele>
        <time>2015-06-08T11:16:03Z</time>
      </trkpt>
      <trkpt lat="44.01223" lon="3.50561">
        <ele>981.35217976901</ele>
        <time>2015-06-08T11:16:15Z</time>
      </trkpt>
      <trkpt lat="44.0126" lon="3.5055">
        <ele>983.31207480006</ele>
        <time>2015-06-08T11:16:49Z</time>
      </trkpt>
      <trkpt lat="44.01267" lon="3.50545">
        <ele>983.31207480006</ele>
        <time>2015-06-08T11:17:00Z</time>
      </trkpt>
      <trkpt lat="44.01284" lon="3.5054">
        <ele>985.31815183185</ele>
        <time>2015-06-08T11:17:11Z</time>
      </trkpt>
      <trkpt lat="44.01294" lon="3.50538">
        <ele>987.26616942428</ele>
        <time>2015-06-08T11:17:32Z</time>
      </trkpt>
      <trkpt lat="44.01299" lon="3.50542">
        <ele>987.26616942428</ele>
        <time>2015-06-08T11:17:46Z</time>
      </trkpt>
      <trkpt lat="44.01322" lon="3.50555">
        <ele>989.50636088714</ele>
        <time>2015-06-08T11:18:26Z</time>
      </trkpt>
      <trkpt lat="44.01323" lon="3.50555">
        <ele>989.50636088714</ele>
        <time>2015-06-08T11:18:34Z</time>
      </trkpt>
      <trkpt lat="44.0133" lon="3.50568">
        <ele>991.78588409108</ele>
        <time>2015-06-08T11:18:59Z</time>
      </trkpt>
      <trkpt lat="44.01327" lon="3.50579">
        <ele>991.78588409108</ele>
        <time>2015-06-08T11:19:40Z</time>
      </trkpt>
      <trkpt lat="44.01346" lon="3.5057">
        <ele>993.98557419391</ele>
        <time>2015-06-08T11:19:45Z</time>
      </trkpt>
      <trkpt lat="44.0142" lon="3.50549">
        <ele>998.20008285097</ele>
        <time>2015-06-08T11:21:03Z</time>
      </trkpt>
      <trkpt lat="44.01427" lon="3.50548">
        <ele>998.20008285097</ele>
        <time>2015-06-08T11:21:09Z</time>
      </trkpt>
      <trkpt lat="44.01428" lon="3.50549">
        <ele>998.20008285097</ele>
        <time>2015-06-08T11:21:17Z</time>
      </trkpt>
      <trkpt lat="44.01441" lon="3.50549">
        <ele>1002.3293722179</ele>
        <time>2015-06-08T11:22:04Z</time>
      </trkpt>
      <trkpt lat="44.01475" lon="3.50556">
        <ele>1006.0275121354</ele>
        <time>2015-06-08T11:22:04Z</time>
      </trkpt>
      <trkpt lat="44.0148" lon="3.5056">
        <ele>1006.0275121354</ele>
        <time>2015-06-08T11:22:07Z</time>
      </trkpt>
      <trkpt lat="44.01487" lon="3.50554">
        <ele>1011.8718177838</ele>
        <time>2015-06-08T11:22:12Z</time>
      </trkpt>
      <trkpt lat="44.01492" lon="3.50555">
        <ele>1011.8718177838</ele>
        <time>2015-06-08T11:22:17Z</time>
      </trkpt>
      <trkpt lat="44.01502" lon="3.50558">
        <ele>1017.3156619272</ele>
        <time>2015-06-08T11:22:22Z</time>
      </trkpt>
      <trkpt lat="44.01509" lon="3.50562">
        <ele>1017.3156619272</ele>
        <time>2015-06-08T11:22:27Z</time>
      </trkpt>
      <trkpt lat="44.0151" lon="3.50564">
        <ele>1022.4505421001</ele>
        <time>2015-06-08T11:22:32Z</time>
      </trkpt>
      <trkpt lat="44.01513" lon="3.50565">
        <ele>1022.4505421001</ele>
        <time>2015-06-08T11:22:37Z</time>
      </trkpt>
      <trkpt lat="44.01518" lon="3.50565">
        <ele>1022.4505421001</ele>
        <time>2015-06-08T11:22:42Z</time>
      </trkpt>
      <trkpt lat="44.01522" lon="3.50564">
        <ele>1027.563917853</ele>
        <time>2015-06-08T11:22:47Z</time>
      </trkpt>
      <trkpt lat="44.01525" lon="3.50565">
        <ele>1027.563917853</ele>
        <time>2015-06-08T11:22:52Z</time>
      </trkpt>
      <trkpt lat="44.01527" lon="3.50564">
        <ele>1027.563917853</ele>
        <time>2015-06-08T11:22:57Z</time>
      </trkpt>
      <trkpt lat="44.01531" lon="3.50564">
        <ele>1032.389065448</ele>
        <time>2015-06-08T11:23:02Z</time>
      </trkpt>
      <trkpt lat="44.01538" lon="3.50567">
        <ele>1032.389065448</ele>
        <time>2015-06-08T11:23:07Z</time>
      </trkpt>
      <trkpt lat="44.01542" lon="3.50569">
        <ele>1036.5212442878</ele>
        <time>2015-06-08T11:23:12Z</time>
      </trkpt>
      <trkpt lat="44.0155" lon="3.50577">
        <ele>1040.1639525955</ele>
        <time>2015-06-08T11:23:17Z</time>
      </trkpt>
      <trkpt lat="44.01555" lon="3.50579">
        <ele>1040.1639525955</ele>
        <time>2015-06-08T11:23:22Z</time>
      </trkpt>
      <trkpt lat="44.01559" lon="3.5058">
        <ele>1043.6801740573</ele>
        <time>2015-06-08T11:23:27Z</time>
      </trkpt>
      <trkpt lat="44.01562" lon="3.50581">
        <ele>1043.6801740573</ele>
        <time>2015-06-08T11:23:37Z</time>
      </trkpt>
      <trkpt lat="44.01588" lon="3.506">
        <ele>1047.6372949088</ele>
        <time>2015-06-08T11:24:01Z</time>
      </trkpt>
      <trkpt lat="44.0159" lon="3.50602">
        <ele>1047.6372949088</ele>
        <time>2015-06-08T11:24:02Z</time>
      </trkpt>
      <trkpt lat="44.01598" lon="3.50609">
        <ele>1051.2917438387</ele>
        <time>2015-06-08T11:24:09Z</time>
      </trkpt>
      <trkpt lat="44.016" lon="3.50611">
        <ele>1051.2917438387</ele>
        <time>2015-06-08T11:24:17Z</time>
      </trkpt>
      <trkpt lat="44.01611" lon="3.50609">
        <ele>1054.6472948141</ele>
        <time>2015-06-08T11:24:18Z</time>
      </trkpt>
      <trkpt lat="44.01616" lon="3.5061">
        <ele>1054.6472948141</ele>
        <time>2015-06-08T11:24:33Z</time>
      </trkpt>
      <trkpt lat="44.01652" lon="3.5063">
        <ele>1058.025468782</ele>
        <time>2015-06-08T11:25:05Z</time>
      </trkpt>
      <trkpt lat="44.01653" lon="3.50632">
        <ele>1058.025468782</ele>
        <time>2015-06-08T11:25:07Z</time>
      </trkpt>
      <trkpt lat="44.01658" lon="3.50637">
        <ele>1058.025468782</ele>
        <time>2015-06-08T11:25:12Z</time>
      </trkpt>
      <trkpt lat="44.01662" lon="3.5064">
        <ele>1061.1189779658</ele>
        <time>2015-06-08T11:25:17Z</time>
      </trkpt>
      <trkpt lat="44.01686" lon="3.5065">
        <ele>1064.3069564239</ele>
        <time>2015-06-08T11:26:06Z</time>
      </trkpt>
      <trkpt lat="44.01703" lon="3.50652">
        <ele>1066.5714996403</ele>
        <time>2015-06-08T11:27:06Z</time>
      </trkpt>
      <trkpt lat="44.01709" lon="3.50655">
        <ele>1066.5714996403</ele>
        <time>2015-06-08T11:27:07Z</time>
      </trkpt>
      <trkpt lat="44.01717" lon="3.5066">
        <ele>1068.5430072885</ele>
        <time>2015-06-08T11:27:17Z</time>
      </trkpt>
      <trkpt lat="44.01735" lon="3.50659">
        <ele>1070.1868312666</ele>
        <time>2015-06-08T11:27:53Z</time>
      </trkpt>
      <trkpt lat="44.01752" lon="3.50642">
        <ele>1071.4863034545</ele>
        <time>2015-06-08T11:28:07Z</time>
      </trkpt>
      <trkpt lat="44.01754" lon="3.50637">
        <ele>1071.4863034545</ele>
        <time>2015-06-08T11:28:15Z</time>
      </trkpt>
      <trkpt lat="44.01761" lon="3.50591">
        <ele>1072.2829234283</ele>
        <time>2015-06-08T11:28:47Z</time>
      </trkpt>
      <trkpt lat="44.01762" lon="3.50591">
        <ele>1072.2829234283</ele>
        <time>2015-06-08T11:28:52Z</time>
      </trkpt>
      <trkpt lat="44.01768" lon="3.50584">
        <ele>1072.2829234283</ele>
        <time>2015-06-08T11:29:32Z</time>
      </trkpt>
      <trkpt lat="44.01771" lon="3.50584">
        <ele>1072.8204155075</ele>
        <time>2015-06-08T11:29:37Z</time>
      </trkpt>
      <trkpt lat="44.01774" lon="3.50585">
        <ele>1072.8204155075</ele>
        <time>2015-06-08T11:29:50Z</time>
      </trkpt>
      <trkpt lat="44.01779" lon="3.50583">
        <ele>1072.8204155075</ele>
        <time>2015-06-08T11:30:07Z</time>
      </trkpt>
      <trkpt lat="44.01784" lon="3.50577">
        <ele>1073.2533226215</ele>
        <time>2015-06-08T11:30:16Z</time>
      </trkpt>
      <trkpt lat="44.01784" lon="3.50575">
        <ele>1073.2533226215</ele>
        <time>2015-06-08T11:30:17Z</time>
      </trkpt>
      <trkpt lat="44.0181" lon="3.50572">
        <ele>1073.9701488263</ele>
        <time>2015-06-08T11:31:12Z</time>
      </trkpt>
      <trkpt lat="44.01832" lon="3.50565">
        <ele>1074.566284991</ele>
        <time>2015-06-08T11:31:49Z</time>
      </trkpt>
      <trkpt lat="44.01848" lon="3.50568">
        <ele>1075.6471332618</ele>
        <time>2015-06-08T11:31:52Z</time>
      </trkpt>
      <trkpt lat="44.01853" lon="3.50567">
        <ele>1075.6471332618</ele>
        <time>2015-06-08T11:31:57Z</time>
      </trkpt>
      <trkpt lat="44.01853" lon="3.50567">
        <ele>1075.6471332618</ele>
        <time>2015-06-08T11:32:02Z</time>
      </trkpt>
      <trkpt lat="44.01857" lon="3.50564">
        <ele>1077.4263770565</ele>
        <time>2015-06-08T11:32:42Z</time>
      </trkpt>
      <trkpt lat="44.01862" lon="3.5057">
        <ele>1077.4263770565</ele>
        <time>2015-06-08T11:32:47Z</time>
      </trkpt>
      <trkpt lat="44.01872" lon="3.50571">
        <ele>1079.2785795077</ele>
        <time>2015-06-08T11:32:57Z</time>
      </trkpt>
      <trkpt lat="44.01876" lon="3.50572">
        <ele>1079.2785795077</ele>
        <time>2015-06-08T11:33:08Z</time>
      </trkpt>
      <trkpt lat="44.01881" lon="3.50573">
        <ele>1081.2869171504</ele>
        <time>2015-06-08T11:33:12Z</time>
      </trkpt>
      <trkpt lat="44.01884" lon="3.50575">
        <ele>1081.2869171504</ele>
        <time>2015-06-08T11:33:17Z</time>
      </trkpt>
      <trkpt lat="44.01888" lon="3.50577">
        <ele>1081.2869171504</ele>
        <time>2015-06-08T11:33:22Z</time>
      </trkpt>
      <trkpt lat="44.0189" lon="3.50577">
        <ele>1081.2869171504</ele>
        <time>2015-06-08T11:33:27Z</time>
      </trkpt>
      <trkpt lat="44.01892" lon="3.50578">
        <ele>1083.5135660249</ele>
        <time>2015-06-08T11:33:32Z</time>
      </trkpt>
      <trkpt lat="44.01896" lon="3.50579">
        <ele>1083.5135660249</ele>
        <time>2015-06-08T11:33:37Z</time>
      </trkpt>
      <trkpt lat="44.019" lon="3.5058">
        <ele>1083.5135660249</ele>
        <time>2015-06-08T11:33:42Z</time>
      </trkpt>
      <trkpt lat="44.01905" lon="3.50582">
        <ele>1085.7704905086</ele>
        <time>2015-06-08T11:33:47Z</time>
      </trkpt>
      <trkpt lat="44.01907" lon="3.50581">
        <ele>1085.7704905086</ele>
        <time>2015-06-08T11:33:52Z</time>
      </trkpt>
      <trkpt lat="44.01907" lon="3.50581">
        <ele>1085.7704905086</ele>
        <time>2015-06-08T11:33:57Z</time>
      </trkpt>
      <trkpt lat="44.01909" lon="3.5058">
        <ele>1085.7704905086</ele>
        <time>2015-06-08T11:34:03Z</time>
      </trkpt>
      <trkpt lat="44.01911" lon="3.50581">
        <ele>1085.7704905086</ele>
        <time>2015-06-08T11:34:07Z</time>
      </trkpt>
      <trkpt lat="44.01916" lon="3.50584">
        <ele>1088.0274509541</ele>
        <time>2015-06-08T11:34:12Z</time>
      </trkpt>
      <trkpt lat="44.01917" lon="3.50587">
        <ele>1088.0274509541</ele>
        <time>2015-06-08T11:34:17Z</time>
      </trkpt>
      <trkpt lat="44.01922" lon="3.50588">
        <ele>1088.0274509541</ele>
        <time>2015-06-08T11:34:22Z</time>
      </trkpt>
      <trkpt lat="44.01927" lon="3.50588">
        <ele>1089.9537521842</ele>
        <time>2015-06-08T11:34:27Z</time>
      </trkpt>
      <trkpt lat="44.01932" lon="3.5059">
        <ele>1089.9537521842</ele>
        <time>2015-06-08T11:34:32Z</time>
      </trkpt>
      <trkpt lat="44.01937" lon="3.50592">
        <ele>1091.6473867293</ele>
        <time>2015-06-08T11:34:37Z</time>
      </trkpt>
      <trkpt lat="44.01942" lon="3.50596">
        <ele>1091.6473867293</ele>
        <time>2015-06-08T11:34:44Z</time>
      </trkpt>
      <trkpt lat="44.01944" lon="3.50597">
        <ele>1091.6473867293</ele>
        <time>2015-06-08T11:34:47Z</time>
      </trkpt>
      <trkpt lat="44.01948" lon="3.506">
        <ele>1093.1421114504</ele>
        <time>2015-06-08T11:34:52Z</time>
      </trkpt>
      <trkpt lat="44.0195" lon="3.50605">
        <ele>1093.1421114504</ele>
        <time>2015-06-08T11:34:57Z</time>
      </trkpt>
      <trkpt lat="44.01952" lon="3.50607">
        <ele>1093.1421114504</ele>
        <time>2015-06-08T11:35:02Z</time>
      </trkpt>
      <trkpt lat="44.01953" lon="3.50609">
        <ele>1093.1421114504</ele>
        <time>2015-06-08T11:35:07Z</time>
      </trkpt>
      <trkpt lat="44.01961" lon="3.50611">
        <ele>1094.5850021253</ele>
        <time>2015-06-08T11:35:27Z</time>
      </trkpt>
      <trkpt lat="44.01965" lon="3.50614">
        <ele>1094.5850021253</ele>
        <time>2015-06-08T11:35:32Z</time>
      </trkpt>
      <trkpt lat="44.01967" lon="3.50616">
        <ele>1094.5850021253</ele>
        <time>2015-06-08T11:35:37Z</time>
      </trkpt>
      <trkpt lat="44.01975" lon="3.50625">
        <ele>1095.8242010322</ele>
        <time>2015-06-08T11:36:17Z</time>
      </trkpt>
      <trkpt lat="44.02004" lon="3.50655">
        <ele>1096.9212753304</ele>
        <time>2015-06-08T11:37:22Z</time>
      </trkpt>
      <trkpt lat="44.01996" lon="3.50647">
        <ele>1097.9480161423</ele>
        <time>2015-06-08T11:38:17Z</time>
      </trkpt>
      <trkpt lat="44.01992" lon="3.50648">
        <ele>1097.9480161423</ele>
        <time>2015-06-08T11:38:27Z</time>
      </trkpt>
      <trkpt lat="44.02" lon="3.50685">
        <ele>1099.1151805458</ele>
        <time>2015-06-08T11:39:02Z</time>
      </trkpt>
      <trkpt lat="44.02" lon="3.50687">
        <ele>1099.1151805458</ele>
        <time>2015-06-08T11:39:07Z</time>
      </trkpt>
      <trkpt lat="44.01998" lon="3.50692">
        <ele>1099.1151805458</ele>
        <time>2015-06-08T11:39:12Z</time>
      </trkpt>
      <trkpt lat="44.01998" lon="3.50692">
        <ele>1099.1151805458</ele>
        <time>2015-06-08T11:39:17Z</time>
      </trkpt>
      <trkpt lat="44.02001" lon="3.50696">
        <ele>1100.3293530587</ele>
        <time>2015-06-08T11:39:22Z</time>
      </trkpt>
      <trkpt lat="44.02021" lon="3.50718">
        <ele>1101.5181806832</ele>
        <time>2015-06-08T11:39:57Z</time>
      </trkpt>
      <trkpt lat="44.02034" lon="3.50734">
        <ele>1102.6146134106</ele>
        <time>2015-06-08T11:40:22Z</time>
      </trkpt>
      <trkpt lat="44.02038" lon="3.50737">
        <ele>1102.6146134106</ele>
        <time>2015-06-08T11:40:30Z</time>
      </trkpt>
      <trkpt lat="44.02039" lon="3.50738">
        <ele>1102.6146134106</ele>
        <time>2015-06-08T11:40:32Z</time>
      </trkpt>
      <trkpt lat="44.02043" lon="3.50741">
        <ele>1103.5999324805</ele>
        <time>2015-06-08T11:40:37Z</time>
      </trkpt>
      <trkpt lat="44.02045" lon="3.50743">
        <ele>1103.5999324805</ele>
        <time>2015-06-08T11:40:45Z</time>
      </trkpt>
      <trkpt lat="44.02048" lon="3.50744">
        <ele>1103.5999324805</ele>
        <time>2015-06-08T11:40:54Z</time>
      </trkpt>
      <trkpt lat="44.02072" lon="3.5074">
        <ele>1104.9037609161</ele>
        <time>2015-06-08T11:41:29Z</time>
      </trkpt>
      <trkpt lat="44.02088" lon="3.50739">
        <ele>1106.2890873598</ele>
        <time>2015-06-08T11:41:48Z</time>
      </trkpt>
      <trkpt lat="44.02125" lon="3.5074">
        <ele>1108.6744692623</ele>
        <time>2015-06-08T11:42:22Z</time>
      </trkpt>
      <trkpt lat="44.02139" lon="3.50729">
        <ele>1112.0001942815</ele>
        <time>2015-06-08T11:42:49Z</time>
      </trkpt>
      <trkpt lat="44.02145" lon="3.50729">
        <ele>1112.0001942815</ele>
        <time>2015-06-08T11:42:59Z</time>
      </trkpt>
      <trkpt lat="44.02172" lon="3.5072">
        <ele>1116.1793986202</ele>
        <time>2015-06-08T11:43:23Z</time>
      </trkpt>
      <trkpt lat="44.02173" lon="3.50719">
        <ele>1116.1793986202</ele>
        <time>2015-06-08T11:43:27Z</time>
      </trkpt>
      <trkpt lat="44.02175" lon="3.50716">
        <ele>1116.1793986202</ele>
        <time>2015-06-08T11:43:32Z</time>
      </trkpt>
      <trkpt lat="44.02211" lon="3.50715">
        <ele>1121.6623553207</ele>
        <time>2015-06-08T11:44:21Z</time>
      </trkpt>
      <trkpt lat="44.02212" lon="3.50715">
        <ele>1121.6623553207</ele>
        <time>2015-06-08T11:44:22Z</time>
      </trkpt>
      <trkpt lat="44.02227" lon="3.50714">
        <ele>1126.8450073359</ele>
        <time>2015-06-08T11:44:42Z</time>
      </trkpt>
      <trkpt lat="44.02259" lon="3.50712">
        <ele>1132.0289375231</ele>
        <time>2015-06-08T11:45:18Z</time>
      </trkpt>
      <trkpt lat="44.0226" lon="3.50711">
        <ele>1132.0289375231</ele>
        <time>2015-06-08T11:45:22Z</time>
      </trkpt>
      <trkpt lat="44.0232" lon="3.507">
        <ele>1137.7673957569</ele>
        <time>2015-06-08T11:46:22Z</time>
      </trkpt>
      <trkpt lat="44.02323" lon="3.50701">
        <ele>1137.7673957569</ele>
        <time>2015-06-08T11:46:30Z</time>
      </trkpt>
      <trkpt lat="44.02337" lon="3.50704">
        <ele>1142.8997851384</ele>
        <time>2015-06-08T11:47:15Z</time>
      </trkpt>
      <trkpt lat="44.02354" lon="3.50708">
        <ele>1147.7359963741</ele>
        <time>2015-06-08T11:47:22Z</time>
      </trkpt>
      <trkpt lat="44.02378" lon="3.5072">
        <ele>1152.3767262812</ele>
        <time>2015-06-08T11:48:10Z</time>
      </trkpt>
      <trkpt lat="44.02408" lon="3.50716">
        <ele>1156.4980013673</ele>
        <time>2015-06-08T11:48:24Z</time>
      </trkpt>
      <trkpt lat="44.02413" lon="3.50714">
        <ele>1156.4980013673</ele>
        <time>2015-06-08T11:48:29Z</time>
      </trkpt>
      <trkpt lat="44.0246" lon="3.50704">
        <ele>1160.565006771</ele>
        <time>2015-06-08T11:49:27Z</time>
      </trkpt>
      <trkpt lat="44.02468" lon="3.50703">
        <ele>1160.565006771</ele>
        <time>2015-06-08T11:49:34Z</time>
      </trkpt>
      <trkpt lat="44.02471" lon="3.50703">
        <ele>1164.1731846454</ele>
        <time>2015-06-08T11:49:37Z</time>
      </trkpt>
      <trkpt lat="44.02478" lon="3.50704">
        <ele>1164.1731846454</ele>
        <time>2015-06-08T11:49:45Z</time>
      </trkpt>
      <trkpt lat="44.0248" lon="3.50704">
        <ele>1164.1731846454</ele>
        <time>2015-06-08T11:49:47Z</time>
      </trkpt>
      <trkpt lat="44.02505" lon="3.50707">
        <ele>1167.3670317338</ele>
        <time>2015-06-08T11:50:12Z</time>
      </trkpt>
      <trkpt lat="44.02521" lon="3.50701">
        <ele>1170.1746547249</ele>
        <time>2015-06-08T11:50:25Z</time>
      </trkpt>
      <trkpt lat="44.02524" lon="3.50699">
        <ele>1170.1746547249</ele>
        <time>2015-06-08T11:50:33Z</time>
      </trkpt>
      <trkpt lat="44.02562" lon="3.50706">
        <ele>1172.522426064</ele>
        <time>2015-06-08T11:51:08Z</time>
      </trkpt>
      <trkpt lat="44.02566" lon="3.50711">
        <ele>1172.522426064</ele>
        <time>2015-06-08T11:51:09Z</time>
      </trkpt>
      <trkpt lat="44.02602" lon="3.50742">
        <ele>1174.7614581693</ele>
        <time>2015-06-08T11:51:57Z</time>
      </trkpt>
      <trkpt lat="44.02609" lon="3.50747">
        <ele>1174.7614581693</ele>
        <time>2015-06-08T11:52:02Z</time>
      </trkpt>
      <trkpt lat="44.02615" lon="3.50749">
        <ele>1176.3672297275</ele>
        <time>2015-06-08T11:52:07Z</time>
      </trkpt>
      <trkpt lat="44.02618" lon="3.50749">
        <ele>1176.3672297275</ele>
        <time>2015-06-08T11:52:12Z</time>
      </trkpt>
      <trkpt lat="44.02621" lon="3.50749">
        <ele>1176.3672297275</ele>
        <time>2015-06-08T11:52:17Z</time>
      </trkpt>
      <trkpt lat="44.02626" lon="3.5075">
        <ele>1177.8499919531</ele>
        <time>2015-06-08T11:52:22Z</time>
      </trkpt>
      <trkpt lat="44.0263" lon="3.50749">
        <ele>1177.8499919531</ele>
        <time>2015-06-08T11:52:27Z</time>
      </trkpt>
      <trkpt lat="44.02637" lon="3.50745">
        <ele>1179.0200310579</ele>
        <time>2015-06-08T11:52:32Z</time>
      </trkpt>
      <trkpt lat="44.0264" lon="3.50743">
        <ele>1179.0200310579</ele>
        <time>2015-06-08T11:52:37Z</time>
      </trkpt>
      <trkpt lat="44.02643" lon="3.50741">
        <ele>1179.0200310579</ele>
        <time>2015-06-08T11:52:53Z</time>
      </trkpt>
      <trkpt lat="44.02659" lon="3.50736">
        <ele>1180.278960469</ele>
        <time>2015-06-08T11:53:15Z</time>
      </trkpt>
      <trkpt lat="44.02666" lon="3.50724">
        <ele>1181.4222503659</ele>
        <time>2015-06-08T11:53:19Z</time>
      </trkpt>
      <trkpt lat="44.02669" lon="3.50722">
        <ele>1181.4222503659</ele>
        <time>2015-06-08T11:53:23Z</time>
      </trkpt>
      <trkpt lat="44.02707" lon="3.50696">
        <ele>1183.2839479338</ele>
        <time>2015-06-08T11:54:12Z</time>
      </trkpt>
      <trkpt lat="44.02727" lon="3.50701">
        <ele>1184.9343300049</ele>
        <time>2015-06-08T11:54:24Z</time>
      </trkpt>
      <trkpt lat="44.02757" lon="3.50696">
        <ele>1186.8095781217</ele>
        <time>2015-06-08T11:55:12Z</time>
      </trkpt>
      <trkpt lat="44.02765" lon="3.50699">
        <ele>1186.8095781217</ele>
        <time>2015-06-08T11:55:24Z</time>
      </trkpt>
      <trkpt lat="44.02769" lon="3.50708">
        <ele>1188.6214731901</ele>
        <time>2015-06-08T11:55:27Z</time>
      </trkpt>
      <trkpt lat="44.02801" lon="3.50734">
        <ele>1190.7948784313</ele>
        <time>2015-06-08T11:56:27Z</time>
      </trkpt>
      <trkpt lat="44.02806" lon="3.50745">
        <ele>1192.67041348</ele>
        <time>2015-06-08T11:57:00Z</time>
      </trkpt>
      <trkpt lat="44.02828" lon="3.50765">
        <ele>1194.8484925969</ele>
        <time>2015-06-08T11:57:27Z</time>
      </trkpt>
      <trkpt lat="44.02834" lon="3.50765">
        <ele>1194.8484925969</ele>
        <time>2015-06-08T11:57:39Z</time>
      </trkpt>
      <trkpt lat="44.02848" lon="3.50772">
        <ele>1196.9046026844</ele>
        <time>2015-06-08T11:57:50Z</time>
      </trkpt>
      <trkpt lat="44.02855" lon="3.50781">
        <ele>1198.9213040278</ele>
        <time>2015-06-08T11:58:11Z</time>
      </trkpt>
      <trkpt lat="44.02871" lon="3.50794">
        <ele>1200.8166567672</ele>
        <time>2015-06-08T11:58:27Z</time>
      </trkpt>
      <trkpt lat="44.02876" lon="3.50796">
        <ele>1200.8166567672</ele>
        <time>2015-06-08T11:58:32Z</time>
      </trkpt>
      <trkpt lat="44.0289" lon="3.50799">
        <ele>1202.673576131</ele>
        <time>2015-06-08T11:58:47Z</time>
      </trkpt>
      <trkpt lat="44.02895" lon="3.50796">
        <ele>1202.673576131</ele>
        <time>2015-06-08T11:59:05Z</time>
      </trkpt>
      <trkpt lat="44.02894" lon="3.50795">
        <ele>1202.673576131</ele>
        <time>2015-06-08T11:59:20Z</time>
      </trkpt>
      <trkpt lat="44.02893" lon="3.50794">
        <ele>1202.673576131</ele>
        <time>2015-06-08T11:59:27Z</time>
      </trkpt>
      <trkpt lat="44.02903" lon="3.5081">
        <ele>1204.5113193959</ele>
        <time>2015-06-08T11:59:39Z</time>
      </trkpt>
      <trkpt lat="44.02924" lon="3.50825">
        <ele>1206.1748153356</ele>
        <time>2015-06-08T12:00:17Z</time>
      </trkpt>
      <trkpt lat="44.02927" lon="3.50827">
        <ele>1206.1748153356</ele>
        <time>2015-06-08T12:00:27Z</time>
      </trkpt>
      <trkpt lat="44.02927" lon="3.50828">
        <ele>1206.1748153356</ele>
        <time>2015-06-08T12:00:27Z</time>
      </trkpt>
      <trkpt lat="44.02927" lon="3.50828">
        <ele>1206.1748153356</ele>
        <time>2015-06-08T12:00:39Z</time>
      </trkpt>
      <trkpt lat="44.02959" lon="3.50803">
        <ele>1207.9531684219</ele>
        <time>2015-06-08T12:01:27Z</time>
      </trkpt>
      <trkpt lat="44.02962" lon="3.50799">
        <ele>1207.9531684219</ele>
        <time>2015-06-08T12:01:35Z</time>
      </trkpt>
      <trkpt lat="44.02966" lon="3.50796">
        <ele>1209.5806701587</ele>
        <time>2015-06-08T12:02:00Z</time>
      </trkpt>
      <trkpt lat="44.02978" lon="3.50777">
        <ele>1211.2582528741</ele>
        <time>2015-06-08T12:02:27Z</time>
      </trkpt>
      <trkpt lat="44.02978" lon="3.50775">
        <ele>1211.2582528741</ele>
        <time>2015-06-08T12:02:36Z</time>
      </trkpt>
      <trkpt lat="44.02976" lon="3.50722">
        <ele>1213.0133765291</ele>
        <time>2015-06-08T12:03:28Z</time>
      </trkpt>
      <trkpt lat="44.02975" lon="3.50717">
        <ele>1213.0133765291</ele>
        <time>2015-06-08T12:03:32Z</time>
      </trkpt>
      <trkpt lat="44.02974" lon="3.5069">
        <ele>1214.5829915091</ele>
        <time>2015-06-08T12:03:52Z</time>
      </trkpt>
      <trkpt lat="44.02971" lon="3.50685">
        <ele>1214.5829915091</ele>
        <time>2015-06-08T12:03:57Z</time>
      </trkpt>
      <trkpt lat="44.02968" lon="3.50685">
        <ele>1214.5829915091</ele>
        <time>2015-06-08T12:04:02Z</time>
      </trkpt>
      <trkpt lat="44.02965" lon="3.50685">
        <ele>1216.2570479612</ele>
        <time>2015-06-08T12:04:07Z</time>
      </trkpt>
      <trkpt lat="44.02959" lon="3.50683">
        <ele>1216.2570479612</ele>
        <time>2015-06-08T12:04:12Z</time>
      </trkpt>
      <trkpt lat="44.02953" lon="3.50679">
        <ele>1217.8282784814</ele>
        <time>2015-06-08T12:04:17Z</time>
      </trkpt>
      <trkpt lat="44.02949" lon="3.50679">
        <ele>1217.8282784814</ele>
        <time>2015-06-08T12:04:22Z</time>
      </trkpt>
      <trkpt lat="44.02944" lon="3.50678">
        <ele>1219.3354469553</ele>
        <time>2015-06-08T12:04:27Z</time>
      </trkpt>
      <trkpt lat="44.02939" lon="3.50678">
        <ele>1219.3354469553</ele>
        <time>2015-06-08T12:04:32Z</time>
      </trkpt>
      <trkpt lat="44.02934" lon="3.50678">
        <ele>1220.756941431</ele>
        <time>2015-06-08T12:04:37Z</time>
      </trkpt>
      <trkpt lat="44.0293" lon="3.50674">
        <ele>1220.756941431</ele>
        <time>2015-06-08T12:04:42Z</time>
      </trkpt>
      <trkpt lat="44.02926" lon="3.50672">
        <ele>1222.1449672674</ele>
        <time>2015-06-08T12:04:47Z</time>
      </trkpt>
      <trkpt lat="44.02922" lon="3.50671">
        <ele>1222.1449672674</ele>
        <time>2015-06-08T12:04:52Z</time>
      </trkpt>
      <trkpt lat="44.02919" lon="3.50667">
        <ele>1222.1449672674</ele>
        <time>2015-06-08T12:04:57Z</time>
      </trkpt>
      <trkpt lat="44.02917" lon="3.50661">
        <ele>1223.3605749213</ele>
        <time>2015-06-08T12:05:02Z</time>
      </trkpt>
      <trkpt lat="44.02913" lon="3.50657">
        <ele>1223.3605749213</ele>
        <time>2015-06-08T12:05:07Z</time>
      </trkpt>
      <trkpt lat="44.0291" lon="3.50651">
        <ele>1224.3474883729</ele>
        <time>2015-06-08T12:05:12Z</time>
      </trkpt>
      <trkpt lat="44.02904" lon="3.50633">
        <ele>1225.2126523911</ele>
        <time>2015-06-08T12:05:27Z</time>
      </trkpt>
      <trkpt lat="44.02901" lon="3.50629">
        <ele>1225.2126523911</ele>
        <time>2015-06-08T12:05:32Z</time>
      </trkpt>
      <trkpt lat="44.029" lon="3.50625">
        <ele>1225.2126523911</ele>
        <time>2015-06-08T12:05:37Z</time>
      </trkpt>
      <trkpt lat="44.02896" lon="3.50614">
        <ele>1225.9833597575</ele>
        <time>2015-06-08T12:05:45Z</time>
      </trkpt>
      <trkpt lat="44.02895" lon="3.50613">
        <ele>1225.9833597575</ele>
        <time>2015-06-08T12:05:47Z</time>
      </trkpt>
      <trkpt lat="44.02892" lon="3.5061">
        <ele>1225.9833597575</ele>
        <time>2015-06-08T12:05:52Z</time>
      </trkpt>
      <trkpt lat="44.02893" lon="3.50609">
        <ele>1225.9833597575</ele>
        <time>2015-06-08T12:05:57Z</time>
      </trkpt>
      <trkpt lat="44.02894" lon="3.50614">
        <ele>1226.6562538223</ele>
        <time>2015-06-08T12:06:15Z</time>
      </trkpt>
      <trkpt lat="44.02909" lon="3.50634">
        <ele>1227.1851724228</ele>
        <time>2015-06-08T12:06:29Z</time>
      </trkpt>
      <trkpt lat="44.02911" lon="3.50637">
        <ele>1227.1851724228</ele>
        <time>2015-06-08T12:06:32Z</time>
      </trkpt>
      <trkpt lat="44.02915" lon="3.50644">
        <ele>1227.1851724228</ele>
        <time>2015-06-08T12:06:37Z</time>
      </trkpt>
      <trkpt lat="44.02915" lon="3.5065">
        <ele>1227.5420601281</ele>
        <time>2015-06-08T12:06:48Z</time>
      </trkpt>
      <trkpt lat="44.02921" lon="3.50669">
        <ele>1227.8454105243</ele>
        <time>2015-06-08T12:07:03Z</time>
      </trkpt>
      <trkpt lat="44.0294" lon="3.5068">
        <ele>1228.1041729397</ele>
        <time>2015-06-08T12:07:29Z</time>
      </trkpt>
      <trkpt lat="44.02956" lon="3.50689">
        <ele>1228.2690012301</ele>
        <time>2015-06-08T12:07:58Z</time>
      </trkpt>
      <trkpt lat="44.02959" lon="3.50676">
        <ele>1228.3519571338</ele>
        <time>2015-06-08T12:08:13Z</time>
      </trkpt>
      <trkpt lat="44.02957" lon="3.50672">
        <ele>1228.3519571338</ele>
        <time>2015-06-08T12:08:28Z</time>
      </trkpt>
      <trkpt lat="44.02952" lon="3.50663">
        <ele>1228.3643148961</ele>
        <time>2015-06-08T12:08:37Z</time>
      </trkpt>
      <trkpt lat="44.02948" lon="3.50641">
        <ele>1228.287759369</ele>
        <time>2015-06-08T12:08:51Z</time>
      </trkpt>
      <trkpt lat="44.02948" lon="3.5064">
        <ele>1228.287759369</ele>
        <time>2015-06-08T12:08:54Z</time>
      </trkpt>
      <trkpt lat="44.02944" lon="3.5063">
        <ele>1228.287759369</ele>
        <time>2015-06-08T12:09:12Z</time>
      </trkpt>
      <trkpt lat="44.02938" lon="3.50603">
        <ele>1228.4080614538</ele>
        <time>2015-06-08T12:09:58Z</time>
      </trkpt>
      <trkpt lat="44.02947" lon="3.50595">
        <ele>1228.8596009439</ele>
        <time>2015-06-08T12:12:27Z</time>
      </trkpt>
      <trkpt lat="44.02947" lon="3.50598">
        <ele>1228.8596009439</ele>
        <time>2015-06-08T12:12:42Z</time>
      </trkpt>
      <trkpt lat="44.02947" lon="3.50599">
        <ele>1228.8596009439</ele>
        <time>2015-06-08T12:12:50Z</time>
      </trkpt>
      <trkpt lat="44.02936" lon="3.50591">
        <ele>1229.6072862545</ele>
        <time>2015-06-08T12:13:33Z</time>
      </trkpt>
      <trkpt lat="44.02936" lon="3.50593">
        <ele>1229.6072862545</ele>
        <time>2015-06-08T12:14:15Z</time>
      </trkpt>
      <trkpt lat="44.02946" lon="3.50601">
        <ele>1230.4591021129</ele>
        <time>2015-06-08T12:15:06Z</time>
      </trkpt>
      <trkpt lat="44.02946" lon="3.50596">
        <ele>1230.4591021129</ele>
        <time>2015-06-08T12:17:31Z</time>
      </trkpt>
      <trkpt lat="44.02941" lon="3.50592">
        <ele>1231.8419679554</ele>
        <time>2015-06-08T12:18:49Z</time>
      </trkpt>
      <trkpt lat="44.0294" lon="3.50593">
        <ele>1231.8419679554</ele>
        <time>2015-06-08T12:18:52Z</time>
      </trkpt>
      <trkpt lat="44.02944" lon="3.50609">
        <ele>1233.3139674084</ele>
        <time>2015-06-08T12:19:32Z</time>
      </trkpt>
      <trkpt lat="44.02945" lon="3.50593">
        <ele>1234.8543643969</ele>
        <time>2015-06-08T12:20:32Z</time>
      </trkpt>
      <trkpt lat="44.02947" lon="3.50585">
        <ele>1234.8543643969</ele>
        <time>2015-06-08T12:21:37Z</time>
      </trkpt>
      <trkpt lat="44.02946" lon="3.5058">
        <ele>1236.1121739709</ele>
        <time>2015-06-08T12:21:42Z</time>
      </trkpt>
      <trkpt lat="44.02946" lon="3.50581">
        <ele>1236.1121739709</ele>
        <time>2015-06-08T12:21:47Z</time>
      </trkpt>
      <trkpt lat="44.02972" lon="3.50556">
        <ele>1237.2816711008</ele>
        <time>2015-06-08T12:23:32Z</time>
      </trkpt>
      <trkpt lat="44.02976" lon="3.50555">
        <ele>1237.2816711008</ele>
        <time>2015-06-08T12:23:37Z</time>
      </trkpt>
      <trkpt lat="44.02979" lon="3.50553">
        <ele>1237.2816711008</ele>
        <time>2015-06-08T12:23:42Z</time>
      </trkpt>
      <trkpt lat="44.02981" lon="3.5055">
        <ele>1238.4132985674</ele>
        <time>2015-06-08T12:23:53Z</time>
      </trkpt>
      <trkpt lat="44.03003" lon="3.50521">
        <ele>1239.6402648547</ele>
        <time>2015-06-08T12:24:12Z</time>
      </trkpt>
      <trkpt lat="44.03047" lon="3.50465">
        <ele>1240.8982854776</ele>
        <time>2015-06-08T12:25:32Z</time>
      </trkpt>
      <trkpt lat="44.03051" lon="3.50459">
        <ele>1240.8982854776</ele>
        <time>2015-06-08T12:25:43Z</time>
      </trkpt>
      <trkpt lat="44.03065" lon="3.50421">
        <ele>1242.4158443537</ele>
        <time>2015-06-08T12:26:22Z</time>
      </trkpt>
      <trkpt lat="44.03077" lon="3.50418">
        <ele>1243.8417969959</ele>
        <time>2015-06-08T12:26:37Z</time>
      </trkpt>
      <trkpt lat="44.03096" lon="3.50415">
        <ele>1245.2688976538</ele>
        <time>2015-06-08T12:27:22Z</time>
      </trkpt>
      <trkpt lat="44.03095" lon="3.504">
        <ele>1246.6389039737</ele>
        <time>2015-06-08T12:27:34Z</time>
      </trkpt>
      <trkpt lat="44.03096" lon="3.50396">
        <ele>1246.6389039737</ele>
        <time>2015-06-08T12:27:46Z</time>
      </trkpt>
      <trkpt lat="44.03103" lon="3.50313">
        <ele>1248.0997061904</ele>
        <time>2015-06-08T12:28:33Z</time>
      </trkpt>
      <trkpt lat="44.03108" lon="3.503">
        <ele>1249.4133313778</ele>
        <time>2015-06-08T12:28:49Z</time>
      </trkpt>
      <trkpt lat="44.03122" lon="3.50285">
        <ele>1250.532584155</ele>
        <time>2015-06-08T12:29:16Z</time>
      </trkpt>
      <trkpt lat="44.03126" lon="3.50283">
        <ele>1250.532584155</ele>
        <time>2015-06-08T12:29:17Z</time>
      </trkpt>
      <trkpt lat="44.03133" lon="3.50292">
        <ele>1251.5727581095</ele>
        <time>2015-06-08T12:29:32Z</time>
      </trkpt>
      <trkpt lat="44.03135" lon="3.50294">
        <ele>1251.5727581095</ele>
        <time>2015-06-08T12:29:37Z</time>
      </trkpt>
      <trkpt lat="44.03149" lon="3.503">
        <ele>1252.5832128836</ele>
        <time>2015-06-08T12:29:49Z</time>
      </trkpt>
      <trkpt lat="44.03167" lon="3.50279">
        <ele>1253.6673709106</ele>
        <time>2015-06-08T12:30:11Z</time>
      </trkpt>
      <trkpt lat="44.0317" lon="3.50279">
        <ele>1253.6673709106</ele>
        <time>2015-06-08T12:30:17Z</time>
      </trkpt>
      <trkpt lat="44.03172" lon="3.50278">
        <ele>1253.6673709106</ele>
        <time>2015-06-08T12:30:22Z</time>
      </trkpt>
      <trkpt lat="44.03172" lon="3.50278">
        <ele>1253.6673709106</ele>
        <time>2015-06-08T12:30:27Z</time>
      </trkpt>
      <trkpt lat="44.03173" lon="3.50276">
        <ele>1253.6673709106</ele>
        <time>2015-06-08T12:30:32Z</time>
      </trkpt>
      <trkpt lat="44.03174" lon="3.5027">
        <ele>1255.0793365725</ele>
        <time>2015-06-08T12:30:37Z</time>
      </trkpt>
      <trkpt lat="44.03175" lon="3.50264">
        <ele>1255.0793365725</ele>
        <time>2015-06-08T12:30:42Z</time>
      </trkpt>
      <trkpt lat="44.03178" lon="3.50255">
        <ele>1256.5203840133</ele>
        <time>2015-06-08T12:30:47Z</time>
      </trkpt>
      <trkpt lat="44.03178" lon="3.50247">
        <ele>1256.5203840133</ele>
        <time>2015-06-08T12:30:52Z</time>
      </trkpt>
      <trkpt lat="44.03178" lon="3.5024">
        <ele>1257.8721431098</ele>
        <time>2015-06-08T12:30:57Z</time>
      </trkpt>
      <trkpt lat="44.03176" lon="3.50233">
        <ele>1257.8721431098</ele>
        <time>2015-06-08T12:31:02Z</time>
      </trkpt>
      <trkpt lat="44.03174" lon="3.50226">
        <ele>1259.0539866313</ele>
        <time>2015-06-08T12:31:07Z</time>
      </trkpt>
      <trkpt lat="44.03172" lon="3.50218">
        <ele>1259.0539866313</ele>
        <time>2015-06-08T12:31:12Z</time>
      </trkpt>
      <trkpt lat="44.03171" lon="3.50212">
        <ele>1260.1357764481</ele>
        <time>2015-06-08T12:31:17Z</time>
      </trkpt>
      <trkpt lat="44.0317" lon="3.50207">
        <ele>1260.1357764481</ele>
        <time>2015-06-08T12:31:22Z</time>
      </trkpt>
      <trkpt lat="44.03174" lon="3.50205">
        <ele>1260.1357764481</ele>
        <time>2015-06-08T12:31:27Z</time>
      </trkpt>
      <trkpt lat="44.03181" lon="3.50202">
        <ele>1260.9663371814</ele>
        <time>2015-06-08T12:31:32Z</time>
      </trkpt>
      <trkpt lat="44.03186" lon="3.50203">
        <ele>1260.9663371814</ele>
        <time>2015-06-08T12:31:38Z</time>
      </trkpt>
      <trkpt lat="44.03188" lon="3.50204">
        <ele>1260.9663371814</ele>
        <time>2015-06-08T12:31:49Z</time>
      </trkpt>
      <trkpt lat="44.03198" lon="3.50226">
        <ele>1261.6945077292</ele>
        <time>2015-06-08T12:32:01Z</time>
      </trkpt>
      <trkpt lat="44.03199" lon="3.50229">
        <ele>1261.6945077292</ele>
        <time>2015-06-08T12:32:02Z</time>
      </trkpt>
      <trkpt lat="44.032" lon="3.50256">
        <ele>1262.5881628333</ele>
        <time>2015-06-08T12:32:33Z</time>
      </trkpt>
      <trkpt lat="44.03197" lon="3.50267">
        <ele>1262.5881628333</ele>
        <time>2015-06-08T12:32:37Z</time>
      </trkpt>
      <trkpt lat="44.03197" lon="3.5027">
        <ele>1263.6500282373</ele>
        <time>2015-06-08T12:32:43Z</time>
      </trkpt>
      <trkpt lat="44.03197" lon="3.50271">
        <ele>1263.6500282373</ele>
        <time>2015-06-08T12:32:47Z</time>
      </trkpt>
      <trkpt lat="44.03201" lon="3.50272">
        <ele>1263.6500282373</ele>
        <time>2015-06-08T12:32:52Z</time>
      </trkpt>
      <trkpt lat="44.03226" lon="3.50271">
        <ele>1264.8677289062</ele>
        <time>2015-06-08T12:33:25Z</time>
      </trkpt>
      <trkpt lat="44.03238" lon="3.50262">
        <ele>1266.2437566302</ele>
        <time>2015-06-08T12:33:43Z</time>
      </trkpt>
      <trkpt lat="44.03245" lon="3.50264">
        <ele>1266.2437566302</ele>
        <time>2015-06-08T12:33:52Z</time>
      </trkpt>
      <trkpt lat="44.03243" lon="3.50258">
        <ele>1268.8607981153</ele>
        <time>2015-06-08T12:34:16Z</time>
      </trkpt>
      <trkpt lat="44.03244" lon="3.50222">
        <ele>1272.2774099949</ele>
        <time>2015-06-08T12:34:28Z</time>
      </trkpt>
      <trkpt lat="44.03242" lon="3.50212">
        <ele>1272.2774099949</ele>
        <time>2015-06-08T12:34:36Z</time>
      </trkpt>
      <trkpt lat="44.03242" lon="3.50205">
        <ele>1275.4338415766</ele>
        <time>2015-06-08T12:34:45Z</time>
      </trkpt>
      <trkpt lat="44.03241" lon="3.502">
        <ele>1275.4338415766</ele>
        <time>2015-06-08T12:34:49Z</time>
      </trkpt>
      <trkpt lat="44.03241" lon="3.50197">
        <ele>1275.4338415766</ele>
        <time>2015-06-08T12:35:00Z</time>
      </trkpt>
      <trkpt lat="44.03244" lon="3.50162">
        <ele>1278.4730097489</ele>
        <time>2015-06-08T12:35:24Z</time>
      </trkpt>
      <trkpt lat="44.03238" lon="3.50128">
        <ele>1281.2538876334</ele>
        <time>2015-06-08T12:35:32Z</time>
      </trkpt>
      <trkpt lat="44.03236" lon="3.50118">
        <ele>1281.2538876334</ele>
        <time>2015-06-08T12:35:37Z</time>
      </trkpt>
      <trkpt lat="44.03235" lon="3.50111">
        <ele>1283.8051055064</ele>
        <time>2015-06-08T12:35:42Z</time>
      </trkpt>
      <trkpt lat="44.03231" lon="3.50103">
        <ele>1283.8051055064</ele>
        <time>2015-06-08T12:35:47Z</time>
      </trkpt>
      <trkpt lat="44.03226" lon="3.50096">
        <ele>1286.0962512186</ele>
        <time>2015-06-08T12:35:52Z</time>
      </trkpt>
      <trkpt lat="44.03225" lon="3.50089">
        <ele>1286.0962512186</ele>
        <time>2015-06-08T12:35:57Z</time>
      </trkpt>
      <trkpt lat="44.03221" lon="3.50079">
        <ele>1288.1864114755</ele>
        <time>2015-06-08T12:36:02Z</time>
      </trkpt>
      <trkpt lat="44.03217" lon="3.50074">
        <ele>1288.1864114755</ele>
        <time>2015-06-08T12:36:07Z</time>
      </trkpt>
      <trkpt lat="44.03214" lon="3.5007">
        <ele>1290.0012695</ele>
        <time>2015-06-08T12:36:12Z</time>
      </trkpt>
      <trkpt lat="44.0321" lon="3.50068">
        <ele>1290.0012695</ele>
        <time>2015-06-08T12:36:17Z</time>
      </trkpt>
      <trkpt lat="44.03205" lon="3.50065">
        <ele>1291.5160486391</ele>
        <time>2015-06-08T12:36:22Z</time>
      </trkpt>
      <trkpt lat="44.032" lon="3.50063">
        <ele>1291.5160486391</ele>
        <time>2015-06-08T12:36:27Z</time>
      </trkpt>
      <trkpt lat="44.03194" lon="3.50058">
        <ele>1292.7951755054</ele>
        <time>2015-06-08T12:36:32Z</time>
      </trkpt>
      <trkpt lat="44.03192" lon="3.50057">
        <ele>1292.7951755054</ele>
        <time>2015-06-08T12:36:37Z</time>
      </trkpt>
      <trkpt lat="44.0319" lon="3.50059">
        <ele>1292.7951755054</ele>
        <time>2015-06-08T12:36:42Z</time>
      </trkpt>
      <trkpt lat="44.03188" lon="3.50058">
        <ele>1292.7951755054</ele>
        <time>2015-06-08T12:36:47Z</time>
      </trkpt>
      <trkpt lat="44.03184" lon="3.50057">
        <ele>1293.913488092</ele>
        <time>2015-06-08T12:36:52Z</time>
      </trkpt>
      <trkpt lat="44.03179" lon="3.50054">
        <ele>1293.913488092</ele>
        <time>2015-06-08T12:36:57Z</time>
      </trkpt>
      <trkpt lat="44.03175" lon="3.50052">
        <ele>1294.9552564551</ele>
        <time>2015-06-08T12:37:02Z</time>
      </trkpt>
      <trkpt lat="44.0317" lon="3.50051">
        <ele>1294.9552564551</ele>
        <time>2015-06-08T12:37:07Z</time>
      </trkpt>
      <trkpt lat="44.03165" lon="3.50049">
        <ele>1295.7970806125</ele>
        <time>2015-06-08T12:37:12Z</time>
      </trkpt>
      <trkpt lat="44.03159" lon="3.50048">
        <ele>1295.7970806125</ele>
        <time>2015-06-08T12:37:17Z</time>
      </trkpt>
      <trkpt lat="44.03155" lon="3.50045">
        <ele>1296.5414073853</ele>
        <time>2015-06-08T12:37:22Z</time>
      </trkpt>
      <trkpt lat="44.03151" lon="3.50039">
        <ele>1296.5414073853</ele>
        <time>2015-06-08T12:37:27Z</time>
      </trkpt>
      <trkpt lat="44.03145" lon="3.50038">
        <ele>1297.3123003862</ele>
        <time>2015-06-08T12:37:32Z</time>
      </trkpt>
      <trkpt lat="44.03139" lon="3.50037">
        <ele>1297.3123003862</ele>
        <time>2015-06-08T12:37:37Z</time>
      </trkpt>
      <trkpt lat="44.03135" lon="3.50037">
        <ele>1297.9364514424</ele>
        <time>2015-06-08T12:37:42Z</time>
      </trkpt>
      <trkpt lat="44.03128" lon="3.50037">
        <ele>1297.9364514424</ele>
        <time>2015-06-08T12:37:47Z</time>
      </trkpt>
      <trkpt lat="44.03074" lon="3.50035">
        <ele>1298.3834254759</ele>
        <time>2015-06-08T12:38:37Z</time>
      </trkpt>
      <trkpt lat="44.0307" lon="3.50032">
        <ele>1298.3834254759</ele>
        <time>2015-06-08T12:38:42Z</time>
      </trkpt>
      <trkpt lat="44.03065" lon="3.50026">
        <ele>1298.7120084456</ele>
        <time>2015-06-08T12:38:47Z</time>
      </trkpt>
      <trkpt lat="44.0306" lon="3.50022">
        <ele>1298.7120084456</ele>
        <time>2015-06-08T12:38:52Z</time>
      </trkpt>
      <trkpt lat="44.03054" lon="3.50019">
        <ele>1298.9481903231</ele>
        <time>2015-06-08T12:38:59Z</time>
      </trkpt>
      <trkpt lat="44.03053" lon="3.50018">
        <ele>1298.9481903231</ele>
        <time>2015-06-08T12:39:11Z</time>
      </trkpt>
      <trkpt lat="44.0301" lon="3.50002">
        <ele>1299.1739587165</ele>
        <time>2015-06-08T12:39:38Z</time>
      </trkpt>
      <trkpt lat="44.03009" lon="3.49996">
        <ele>1299.1739587165</ele>
        <time>2015-06-08T12:39:46Z</time>
      </trkpt>
      <trkpt lat="44.02985" lon="3.49975">
        <ele>1299.3788347969</ele>
        <time>2015-06-08T12:40:38Z</time>
      </trkpt>
      <trkpt lat="44.0295" lon="3.49957">
        <ele>1299.6684419881</ele>
        <time>2015-06-08T12:40:42Z</time>
      </trkpt>
      <trkpt lat="44.02945" lon="3.49952">
        <ele>1299.6684419881</ele>
        <time>2015-06-08T12:40:55Z</time>
      </trkpt>
      <trkpt lat="44.02877" lon="3.49939">
        <ele>1300.1115617354</ele>
        <time>2015-06-08T12:41:42Z</time>
      </trkpt>
      <trkpt lat="44.0287" lon="3.49942">
        <ele>1300.1115617354</ele>
        <time>2015-06-08T12:41:47Z</time>
      </trkpt>
      <trkpt lat="44.0286" lon="3.49944">
        <ele>1300.5264731897</ele>
        <time>2015-06-08T12:41:56Z</time>
      </trkpt>
      <trkpt lat="44.02859" lon="3.49943">
        <ele>1300.5264731897</ele>
        <time>2015-06-08T12:41:57Z</time>
      </trkpt>
      <trkpt lat="44.02854" lon="3.49945">
        <ele>1300.5264731897</ele>
        <time>2015-06-08T12:42:02Z</time>
      </trkpt>
      <trkpt lat="44.02851" lon="3.49947">
        <ele>1300.9177811193</ele>
        <time>2015-06-08T12:42:07Z</time>
      </trkpt>
      <trkpt lat="44.02845" lon="3.49948">
        <ele>1300.9177811193</ele>
        <time>2015-06-08T12:42:12Z</time>
      </trkpt>
      <trkpt lat="44.0284" lon="3.49948">
        <ele>1301.2609548015</ele>
        <time>2015-06-08T12:42:18Z</time>
      </trkpt>
      <trkpt lat="44.0283" lon="3.4995">
        <ele>1301.5333545966</ele>
        <time>2015-06-08T12:42:31Z</time>
      </trkpt>
      <trkpt lat="44.02828" lon="3.4995">
        <ele>1301.5333545966</ele>
        <time>2015-06-08T12:42:32Z</time>
      </trkpt>
      <trkpt lat="44.02822" lon="3.49952">
        <ele>1301.5333545966</ele>
        <time>2015-06-08T12:42:37Z</time>
      </trkpt>
      <trkpt lat="44.02816" lon="3.49952">
        <ele>1301.7717964186</ele>
        <time>2015-06-08T12:42:42Z</time>
      </trkpt>
      <trkpt lat="44.02782" lon="3.49959">
        <ele>1302.0248431573</ele>
        <time>2015-06-08T12:43:24Z</time>
      </trkpt>
      <trkpt lat="44.02738" lon="3.49983">
        <ele>1302.3662126527</ele>
        <time>2015-06-08T12:43:47Z</time>
      </trkpt>
      <trkpt lat="44.02728" lon="3.49987">
        <ele>1302.6477304246</ele>
        <time>2015-06-08T12:43:59Z</time>
      </trkpt>
      <trkpt lat="44.02725" lon="3.49989">
        <ele>1302.6477304246</ele>
        <time>2015-06-08T12:44:11Z</time>
      </trkpt>
      <trkpt lat="44.02679" lon="3.49992">
        <ele>1303.3230655719</ele>
        <time>2015-06-08T12:44:42Z</time>
      </trkpt>
      <trkpt lat="44.02676" lon="3.49989">
        <ele>1303.3230655719</ele>
        <time>2015-06-08T12:44:47Z</time>
      </trkpt>
      <trkpt lat="44.02675" lon="3.49984">
        <ele>1303.3230655719</ele>
        <time>2015-06-08T12:44:54Z</time>
      </trkpt>
      <trkpt lat="44.02641" lon="3.49907">
        <ele>1304.0908341616</ele>
        <time>2015-06-08T12:45:47Z</time>
      </trkpt>
      <trkpt lat="44.02597" lon="3.49862">
        <ele>1304.7435216513</ele>
        <time>2015-06-08T12:46:47Z</time>
      </trkpt>
      <trkpt lat="44.02593" lon="3.49861">
        <ele>1304.7435216513</ele>
        <time>2015-06-08T12:46:57Z</time>
      </trkpt>
      <trkpt lat="44.02558" lon="3.49788">
        <ele>1305.2188143387</ele>
        <time>2015-06-08T12:47:45Z</time>
      </trkpt>
      <trkpt lat="44.02557" lon="3.49786">
        <ele>1305.2188143387</ele>
        <time>2015-06-08T12:47:47Z</time>
      </trkpt>
      <trkpt lat="44.02554" lon="3.49784">
        <ele>1305.2188143387</ele>
        <time>2015-06-08T12:47:59Z</time>
      </trkpt>
      <trkpt lat="44.02547" lon="3.49773">
        <ele>1305.6035196048</ele>
        <time>2015-06-08T12:47:59Z</time>
      </trkpt>
      <trkpt lat="44.02546" lon="3.49772">
        <ele>1305.6035196048</ele>
        <time>2015-06-08T12:48:08Z</time>
      </trkpt>
      <trkpt lat="44.02522" lon="3.49715">
        <ele>1305.8917902534</ele>
        <time>2015-06-08T12:48:47Z</time>
      </trkpt>
      <trkpt lat="44.0251" lon="3.49692">
        <ele>1306.1216466533</ele>
        <time>2015-06-08T12:48:59Z</time>
      </trkpt>
      <trkpt lat="44.02509" lon="3.4969">
        <ele>1306.1216466533</ele>
        <time>2015-06-08T12:48:59Z</time>
      </trkpt>
      <trkpt lat="44.02484" lon="3.49665">
        <ele>1306.5301690779</ele>
        <time>2015-06-08T12:49:37Z</time>
      </trkpt>
      <trkpt lat="44.02481" lon="3.49645">
        <ele>1307.0338201506</ele>
        <time>2015-06-08T12:49:48Z</time>
      </trkpt>
      <trkpt lat="44.02479" lon="3.49644">
        <ele>1307.0338201506</ele>
        <time>2015-06-08T12:50:00Z</time>
      </trkpt>
      <trkpt lat="44.0248" lon="3.49632">
        <ele>1307.915143526</ele>
        <time>2015-06-08T12:50:31Z</time>
      </trkpt>
      <trkpt lat="44.02492" lon="3.49596">
        <ele>1308.7574804274</ele>
        <time>2015-06-08T12:50:32Z</time>
      </trkpt>
      <trkpt lat="44.02502" lon="3.49579">
        <ele>1309.621571513</ele>
        <time>2015-06-08T12:50:47Z</time>
      </trkpt>
      <trkpt lat="44.02503" lon="3.49579">
        <ele>1309.621571513</ele>
        <time>2015-06-08T12:50:52Z</time>
      </trkpt>
      <trkpt lat="44.02502" lon="3.4958">
        <ele>1309.621571513</ele>
        <time>2015-06-08T12:51:00Z</time>
      </trkpt>
      <trkpt lat="44.02506" lon="3.49579">
        <ele>1309.621571513</ele>
        <time>2015-06-08T12:51:17Z</time>
      </trkpt>
      <trkpt lat="44.02521" lon="3.49575">
        <ele>1310.7076876496</ele>
        <time>2015-06-08T12:52:00Z</time>
      </trkpt>
      <trkpt lat="44.02527" lon="3.49561">
        <ele>1311.6530891828</ele>
        <time>2015-06-08T12:52:06Z</time>
      </trkpt>
      <trkpt lat="44.02528" lon="3.49561">
        <ele>1311.6530891828</ele>
        <time>2015-06-08T12:52:07Z</time>
      </trkpt>
      <trkpt lat="44.02566" lon="3.49514">
        <ele>1312.6264180884</ele>
        <time>2015-06-08T12:52:53Z</time>
      </trkpt>
      <trkpt lat="44.02597" lon="3.49508">
        <ele>1313.2794158147</ele>
        <time>2015-06-08T12:53:27Z</time>
      </trkpt>
      <trkpt lat="44.0263" lon="3.49496">
        <ele>1313.0164512861</ele>
        <time>2015-06-08T12:53:52Z</time>
      </trkpt>
      <trkpt lat="44.02633" lon="3.49494">
        <ele>1313.0164512861</ele>
        <time>2015-06-08T12:53:57Z</time>
      </trkpt>
      <trkpt lat="44.0264" lon="3.49489">
        <ele>1312.5707638633</ele>
        <time>2015-06-08T12:54:02Z</time>
      </trkpt>
      <trkpt lat="44.02646" lon="3.49488">
        <ele>1312.5707638633</ele>
        <time>2015-06-08T12:54:07Z</time>
      </trkpt>
      <trkpt lat="44.0265" lon="3.49485">
        <ele>1311.9016397767</ele>
        <time>2015-06-08T12:54:12Z</time>
      </trkpt>
      <trkpt lat="44.02657" lon="3.49482">
        <ele>1311.9016397767</ele>
        <time>2015-06-08T12:54:17Z</time>
      </trkpt>
      <trkpt lat="44.0266" lon="3.49476">
        <ele>1311.0007522484</ele>
        <time>2015-06-08T12:54:22Z</time>
      </trkpt>
      <trkpt lat="44.02662" lon="3.49471">
        <ele>1311.0007522484</ele>
        <time>2015-06-08T12:54:33Z</time>
      </trkpt>
      <trkpt lat="44.02698" lon="3.49472">
        <ele>1309.5151076338</ele>
        <time>2015-06-08T12:54:49Z</time>
      </trkpt>
      <trkpt lat="44.02702" lon="3.49471">
        <ele>1309.5151076338</ele>
        <time>2015-06-08T12:54:52Z</time>
      </trkpt>
      <trkpt lat="44.02707" lon="3.49469">
        <ele>1309.5151076338</ele>
        <time>2015-06-08T12:54:57Z</time>
      </trkpt>
      <trkpt lat="44.02714" lon="3.49468">
        <ele>1307.7677111587</ele>
        <time>2015-06-08T12:55:02Z</time>
      </trkpt>
      <trkpt lat="44.02766" lon="3.49412">
        <ele>1304.1706306879</ele>
        <time>2015-06-08T12:55:59Z</time>
      </trkpt>
      <trkpt lat="44.02781" lon="3.49404">
        <ele>1300.3560554807</ele>
        <time>2015-06-08T12:56:08Z</time>
      </trkpt>
      <trkpt lat="44.02827" lon="3.49378">
        <ele>1296.0065441327</ele>
        <time>2015-06-08T12:56:52Z</time>
      </trkpt>
      <trkpt lat="44.02832" lon="3.49377">
        <ele>1296.0065441327</ele>
        <time>2015-06-08T12:56:57Z</time>
      </trkpt>
      <trkpt lat="44.02838" lon="3.49372">
        <ele>1292.1263207289</ele>
        <time>2015-06-08T12:57:02Z</time>
      </trkpt>
      <trkpt lat="44.02851" lon="3.4935">
        <ele>1288.4338085458</ele>
        <time>2015-06-08T12:57:23Z</time>
      </trkpt>
      <trkpt lat="44.02879" lon="3.49281">
        <ele>1284.4512169796</ele>
        <time>2015-06-08T12:57:52Z</time>
      </trkpt>
      <trkpt lat="44.02863" lon="3.49233">
        <ele>1280.6875749487</ele>
        <time>2015-06-08T12:58:22Z</time>
      </trkpt>
      <trkpt lat="44.02862" lon="3.49188">
        <ele>1277.123682277</ele>
        <time>2015-06-08T12:58:49Z</time>
      </trkpt>
      <trkpt lat="44.02863" lon="3.49181">
        <ele>1277.123682277</ele>
        <time>2015-06-08T12:58:52Z</time>
      </trkpt>
      <trkpt lat="44.0286" lon="3.49138">
        <ele>1273.7409299328</ele>
        <time>2015-06-08T12:59:11Z</time>
      </trkpt>
      <trkpt lat="44.02861" lon="3.49137">
        <ele>1273.7409299328</ele>
        <time>2015-06-08T12:59:12Z</time>
      </trkpt>
      <trkpt lat="44.02847" lon="3.49079">
        <ele>1270.5501190091</ele>
        <time>2015-06-08T12:59:50Z</time>
      </trkpt>
      <trkpt lat="44.02842" lon="3.49075">
        <ele>1270.5501190091</ele>
        <time>2015-06-08T12:59:52Z</time>
      </trkpt>
      <trkpt lat="44.02844" lon="3.49073">
        <ele>1270.5501190091</ele>
        <time>2015-06-08T12:59:57Z</time>
      </trkpt>
      <trkpt lat="44.02841" lon="3.49038">
        <ele>1267.8774842389</ele>
        <time>2015-06-08T13:00:08Z</time>
      </trkpt>
      <trkpt lat="44.02833" lon="3.49024">
        <ele>1265.6344583858</ele>
        <time>2015-06-08T13:00:17Z</time>
      </trkpt>
      <trkpt lat="44.02782" lon="3.49025">
        <ele>1263.9824812761</ele>
        <time>2015-06-08T13:00:52Z</time>
      </trkpt>
      <trkpt lat="44.02772" lon="3.4902">
        <ele>1262.6800971492</ele>
        <time>2015-06-08T13:01:03Z</time>
      </trkpt>
      <trkpt lat="44.02771" lon="3.4902">
        <ele>1262.6800971492</ele>
        <time>2015-06-08T13:01:13Z</time>
      </trkpt>
      <trkpt lat="44.02741" lon="3.49036">
        <ele>1263.0731517646</ele>
        <time>2015-06-08T13:01:56Z</time>
      </trkpt>
      <trkpt lat="44.0274" lon="3.49037">
        <ele>1263.0731517646</ele>
        <time>2015-06-08T13:01:57Z</time>
      </trkpt>
      <trkpt lat="44.02715" lon="3.49033">
        <ele>1265.1066214163</ele>
        <time>2015-06-08T13:02:37Z</time>
      </trkpt>
      <trkpt lat="44.02702" lon="3.4902">
        <ele>1267.4997559982</ele>
        <time>2015-06-08T13:02:47Z</time>
      </trkpt>
      <trkpt lat="44.02699" lon="3.4901">
        <ele>1267.4997559982</ele>
        <time>2015-06-08T13:02:54Z</time>
      </trkpt>
      <trkpt lat="44.02702" lon="3.49002">
        <ele>1270.0590577509</ele>
        <time>2015-06-08T13:02:57Z</time>
      </trkpt>
      <trkpt lat="44.02707" lon="3.48981">
        <ele>1272.7487368755</ele>
        <time>2015-06-08T13:03:46Z</time>
      </trkpt>
      <trkpt lat="44.02726" lon="3.48949">
        <ele>1275.7945550016</ele>
        <time>2015-06-08T13:03:59Z</time>
      </trkpt>
      <trkpt lat="44.02728" lon="3.48946">
        <ele>1275.7945550016</ele>
        <time>2015-06-08T13:04:10Z</time>
      </trkpt>
      <trkpt lat="44.02736" lon="3.48931">
        <ele>1278.7849384122</ele>
        <time>2015-06-08T13:04:13Z</time>
      </trkpt>
      <trkpt lat="44.02748" lon="3.48913">
        <ele>1281.6124764046</ele>
        <time>2015-06-08T13:04:52Z</time>
      </trkpt>
      <trkpt lat="44.02764" lon="3.48875">
        <ele>1284.2789794592</ele>
        <time>2015-06-08T13:04:52Z</time>
      </trkpt>
      <trkpt lat="44.02766" lon="3.48864">
        <ele>1284.2789794592</ele>
        <time>2015-06-08T13:04:58Z</time>
      </trkpt>
      <trkpt lat="44.02776" lon="3.48854">
        <ele>1287.1901158478</ele>
        <time>2015-06-08T13:05:27Z</time>
      </trkpt>
      <trkpt lat="44.02779" lon="3.48846">
        <ele>1287.1901158478</ele>
        <time>2015-06-08T13:05:37Z</time>
      </trkpt>
      <trkpt lat="44.02783" lon="3.48849">
        <ele>1290.3464352533</ele>
        <time>2015-06-08T13:05:52Z</time>
      </trkpt>
      <trkpt lat="44.02802" lon="3.48832">
        <ele>1293.2578646357</ele>
        <time>2015-06-08T13:05:57Z</time>
      </trkpt>
      <trkpt lat="44.02805" lon="3.48827">
        <ele>1293.2578646357</ele>
        <time>2015-06-08T13:06:05Z</time>
      </trkpt>
      <trkpt lat="44.02811" lon="3.48824">
        <ele>1295.917870767</ele>
        <time>2015-06-08T13:06:10Z</time>
      </trkpt>
      <trkpt lat="44.02854" lon="3.48761">
        <ele>1298.1915347692</ele>
        <time>2015-06-08T13:06:54Z</time>
      </trkpt>
      <trkpt lat="44.02903" lon="3.48719">
        <ele>1299.9694902511</ele>
        <time>2015-06-08T13:07:45Z</time>
      </trkpt>
      <trkpt lat="44.02913" lon="3.48658">
        <ele>1301.6707552818</ele>
        <time>2015-06-08T13:08:23Z</time>
      </trkpt>
      <trkpt lat="44.02912" lon="3.48625">
        <ele>1303.3380844858</ele>
        <time>2015-06-08T13:08:39Z</time>
      </trkpt>
      <trkpt lat="44.02913" lon="3.48624">
        <ele>1303.3380844858</ele>
        <time>2015-06-08T13:08:49Z</time>
      </trkpt>
      <trkpt lat="44.02916" lon="3.48608">
        <ele>1304.8960733053</ele>
        <time>2015-06-08T13:08:55Z</time>
      </trkpt>
      <trkpt lat="44.02916" lon="3.48603">
        <ele>1304.8960733053</ele>
        <time>2015-06-08T13:08:57Z</time>
      </trkpt>
      <trkpt lat="44.02929" lon="3.48541">
        <ele>1306.3618091027</ele>
        <time>2015-06-08T13:09:22Z</time>
      </trkpt>
      <trkpt lat="44.02911" lon="3.48525">
        <ele>1307.4345195368</ele>
        <time>2015-06-08T13:09:47Z</time>
      </trkpt>
      <trkpt lat="44.02905" lon="3.48523">
        <ele>1307.4345195368</ele>
        <time>2015-06-08T13:09:52Z</time>
      </trkpt>
      <trkpt lat="44.029" lon="3.48521">
        <ele>1308.6150114565</ele>
        <time>2015-06-08T13:09:57Z</time>
      </trkpt>
      <trkpt lat="44.02897" lon="3.48519">
        <ele>1308.6150114565</ele>
        <time>2015-06-08T13:10:02Z</time>
      </trkpt>
      <trkpt lat="44.02892" lon="3.48514">
        <ele>1309.632213824</ele>
        <time>2015-06-08T13:10:07Z</time>
      </trkpt>
      <trkpt lat="44.02891" lon="3.48514">
        <ele>1309.632213824</ele>
        <time>2015-06-08T13:10:12Z</time>
      </trkpt>
      <trkpt lat="44.02879" lon="3.4851">
        <ele>1310.3508924805</ele>
        <time>2015-06-08T13:10:17Z</time>
      </trkpt>
      <trkpt lat="44.02873" lon="3.4851">
        <ele>1310.3508924805</ele>
        <time>2015-06-08T13:10:22Z</time>
      </trkpt>
      <trkpt lat="44.02851" lon="3.48485">
        <ele>1310.012666526</ele>
        <time>2015-06-08T13:10:57Z</time>
      </trkpt>
      <trkpt lat="44.02846" lon="3.48482">
        <ele>1310.012666526</ele>
        <time>2015-06-08T13:11:02Z</time>
      </trkpt>
      <trkpt lat="44.0283" lon="3.48481">
        <ele>1309.5176259366</ele>
        <time>2015-06-08T13:11:07Z</time>
      </trkpt>
      <trkpt lat="44.02826" lon="3.48476">
        <ele>1309.5176259366</ele>
        <time>2015-06-08T13:11:12Z</time>
      </trkpt>
      <trkpt lat="44.02805" lon="3.48461">
        <ele>1308.5618513379</ele>
        <time>2015-06-08T13:11:33Z</time>
      </trkpt>
      <trkpt lat="44.02794" lon="3.48438">
        <ele>1307.5713195974</ele>
        <time>2015-06-08T13:11:52Z</time>
      </trkpt>
      <trkpt lat="44.02789" lon="3.48415">
        <ele>1306.5230061975</ele>
        <time>2015-06-08T13:11:57Z</time>
      </trkpt>
      <trkpt lat="44.02784" lon="3.48415">
        <ele>1306.5230061975</ele>
        <time>2015-06-08T13:12:03Z</time>
      </trkpt>
      <trkpt lat="44.02768" lon="3.48415">
        <ele>1305.4823042386</ele>
        <time>2015-06-08T13:12:13Z</time>
      </trkpt>
      <trkpt lat="44.02747" lon="3.48395">
        <ele>1304.5242726756</ele>
        <time>2015-06-08T13:12:57Z</time>
      </trkpt>
      <trkpt lat="44.02745" lon="3.48383">
        <ele>1303.631821444</ele>
        <time>2015-06-08T13:13:13Z</time>
      </trkpt>
      <trkpt lat="44.02746" lon="3.48379">
        <ele>1303.631821444</ele>
        <time>2015-06-08T13:13:57Z</time>
      </trkpt>
      <trkpt lat="44.02745" lon="3.48373">
        <ele>1303.631821444</ele>
        <time>2015-06-08T13:14:03Z</time>
      </trkpt>
      <trkpt lat="44.02745" lon="3.4838">
        <ele>1303.3942481645</ele>
        <time>2015-06-08T13:14:42Z</time>
      </trkpt>
      <trkpt lat="44.02746" lon="3.48384">
        <ele>1303.3942481645</ele>
        <time>2015-06-08T13:14:58Z</time>
      </trkpt>
      <trkpt lat="44.02746" lon="3.48379">
        <ele>1303.3942481645</ele>
        <time>2015-06-08T13:15:25Z</time>
      </trkpt>
      <trkpt lat="44.02744" lon="3.48377">
        <ele>1303.5919728411</ele>
        <time>2015-06-08T13:15:27Z</time>
      </trkpt>
      <trkpt lat="44.02739" lon="3.48376">
        <ele>1303.5919728411</ele>
        <time>2015-06-08T13:16:08Z</time>
      </trkpt>
      <trkpt lat="44.02739" lon="3.48368">
        <ele>1304.9570790451</ele>
        <time>2015-06-08T13:17:02Z</time>
      </trkpt>
      <trkpt lat="44.02742" lon="3.48383">
        <ele>1306.0029589175</ele>
        <time>2015-06-08T13:18:02Z</time>
      </trkpt>
      <trkpt lat="44.02743" lon="3.48387">
        <ele>1306.0029589175</ele>
        <time>2015-06-08T13:18:07Z</time>
      </trkpt>
      <trkpt lat="44.02732" lon="3.48326">
        <ele>1306.3042684883</ele>
        <time>2015-06-08T13:19:02Z</time>
      </trkpt>
      <trkpt lat="44.02726" lon="3.48281">
        <ele>1306.8092627313</ele>
        <time>2015-06-08T13:19:28Z</time>
      </trkpt>
      <trkpt lat="44.02723" lon="3.48274">
        <ele>1306.8092627313</ele>
        <time>2015-06-08T13:19:32Z</time>
      </trkpt>
      <trkpt lat="44.02718" lon="3.48267">
        <ele>1307.3872207639</ele>
        <time>2015-06-08T13:19:37Z</time>
      </trkpt>
      <trkpt lat="44.02711" lon="3.48264">
        <ele>1307.3872207639</ele>
        <time>2015-06-08T13:19:42Z</time>
      </trkpt>
      <trkpt lat="44.02704" lon="3.48256">
        <ele>1307.945673392</ele>
        <time>2015-06-08T13:19:47Z</time>
      </trkpt>
      <trkpt lat="44.027" lon="3.48253">
        <ele>1307.945673392</ele>
        <time>2015-06-08T13:19:57Z</time>
      </trkpt>
      <trkpt lat="44.02698" lon="3.4825">
        <ele>1307.945673392</ele>
        <time>2015-06-08T13:20:04Z</time>
      </trkpt>
      <trkpt lat="44.02688" lon="3.48253">
        <ele>1308.2981511231</ele>
        <time>2015-06-08T13:21:02Z</time>
      </trkpt>
      <trkpt lat="44.02686" lon="3.48251">
        <ele>1308.2981511231</ele>
        <time>2015-06-08T13:21:11Z</time>
      </trkpt>
      <trkpt lat="44.02626" lon="3.48196">
        <ele>1308.4598332033</ele>
        <time>2015-06-08T13:22:02Z</time>
      </trkpt>
      <trkpt lat="44.02554" lon="3.48136">
        <ele>1308.6038675857</ele>
        <time>2015-06-08T13:23:03Z</time>
      </trkpt>
      <trkpt lat="44.02546" lon="3.48131">
        <ele>1308.6038675857</ele>
        <time>2015-06-08T13:23:16Z</time>
      </trkpt>
      <trkpt lat="44.02509" lon="3.48088">
        <ele>1308.4728327841</ele>
        <time>2015-06-08T13:24:03Z</time>
      </trkpt>
      <trkpt lat="44.02503" lon="3.48082">
        <ele>1308.4728327841</ele>
        <time>2015-06-08T13:24:12Z</time>
      </trkpt>
      <trkpt lat="44.025" lon="3.48078">
        <ele>1308.2757519482</ele>
        <time>2015-06-08T13:24:12Z</time>
      </trkpt>
      <trkpt lat="44.02467" lon="3.48062">
        <ele>1307.9615028286</ele>
        <time>2015-06-08T13:24:42Z</time>
      </trkpt>
      <trkpt lat="44.02451" lon="3.48041">
        <ele>1307.5839321934</ele>
        <time>2015-06-08T13:24:57Z</time>
      </trkpt>
      <trkpt lat="44.02448" lon="3.48038">
        <ele>1307.5839321934</ele>
        <time>2015-06-08T13:25:02Z</time>
      </trkpt>
      <trkpt lat="44.02415" lon="3.48025">
        <ele>1307.0345870863</ele>
        <time>2015-06-08T13:25:35Z</time>
      </trkpt>
      <trkpt lat="44.02384" lon="3.48027">
        <ele>1306.2999233674</ele>
        <time>2015-06-08T13:25:53Z</time>
      </trkpt>
      <trkpt lat="44.02377" lon="3.48032">
        <ele>1306.2999233674</ele>
        <time>2015-06-08T13:26:03Z</time>
      </trkpt>
      <trkpt lat="44.02351" lon="3.48038">
        <ele>1305.353486128</ele>
        <time>2015-06-08T13:26:24Z</time>
      </trkpt>
      <trkpt lat="44.02333" lon="3.48049">
        <ele>1304.2578016063</ele>
        <time>2015-06-08T13:26:47Z</time>
      </trkpt>
      <trkpt lat="44.02305" lon="3.48055">
        <ele>1303.0711893717</ele>
        <time>2015-06-08T13:27:02Z</time>
      </trkpt>
      <trkpt lat="44.02302" lon="3.48057">
        <ele>1303.0711893717</ele>
        <time>2015-06-08T13:27:12Z</time>
      </trkpt>
      <trkpt lat="44.0228" lon="3.48059">
        <ele>1301.5884976144</ele>
        <time>2015-06-08T13:27:27Z</time>
      </trkpt>
      <trkpt lat="44.02237" lon="3.4808">
        <ele>1299.9086448958</ele>
        <time>2015-06-08T13:28:03Z</time>
      </trkpt>
      <trkpt lat="44.02188" lon="3.481">
        <ele>1297.9652498152</ele>
        <time>2015-06-08T13:28:33Z</time>
      </trkpt>
      <trkpt lat="44.02162" lon="3.48111">
        <ele>1295.8127591201</ele>
        <time>2015-06-08T13:28:44Z</time>
      </trkpt>
      <trkpt lat="44.02155" lon="3.48113">
        <ele>1295.8127591201</ele>
        <time>2015-06-08T13:28:47Z</time>
      </trkpt>
      <trkpt lat="44.02148" lon="3.48115">
        <ele>1293.5453505964</ele>
        <time>2015-06-08T13:28:52Z</time>
      </trkpt>
      <trkpt lat="44.02146" lon="3.48117">
        <ele>1293.5453505964</ele>
        <time>2015-06-08T13:28:57Z</time>
      </trkpt>
      <trkpt lat="44.02143" lon="3.48121">
        <ele>1293.5453505964</ele>
        <time>2015-06-08T13:29:02Z</time>
      </trkpt>
      <trkpt lat="44.02139" lon="3.48126">
        <ele>1291.0487479192</ele>
        <time>2015-06-08T13:29:14Z</time>
      </trkpt>
      <trkpt lat="44.02122" lon="3.48128">
        <ele>1288.0302510165</ele>
        <time>2015-06-08T13:29:27Z</time>
      </trkpt>
      <trkpt lat="44.02116" lon="3.48134">
        <ele>1288.0302510165</ele>
        <time>2015-06-08T13:29:32Z</time>
      </trkpt>
      <trkpt lat="44.02065" lon="3.48148">
        <ele>1284.0182367457</ele>
        <time>2015-06-08T13:30:03Z</time>
      </trkpt>
      <trkpt lat="44.02061" lon="3.48148">
        <ele>1284.0182367457</ele>
        <time>2015-06-08T13:30:07Z</time>
      </trkpt>
      <trkpt lat="44.02053" lon="3.48144">
        <ele>1280.0771198068</ele>
        <time>2015-06-08T13:30:12Z</time>
      </trkpt>
      <trkpt lat="44.02046" lon="3.48146">
        <ele>1280.0771198068</ele>
        <time>2015-06-08T13:30:17Z</time>
      </trkpt>
      <trkpt lat="44.02027" lon="3.48152">
        <ele>1276.0398656886</ele>
        <time>2015-06-08T13:30:38Z</time>
      </trkpt>
      <trkpt lat="44.02017" lon="3.48149">
        <ele>1271.7806121088</ele>
        <time>2015-06-08T13:30:39Z</time>
      </trkpt>
      <trkpt lat="44.01993" lon="3.48134">
        <ele>1267.1975661019</ele>
        <time>2015-06-08T13:31:00Z</time>
      </trkpt>
      <trkpt lat="44.01991" lon="3.48133">
        <ele>1267.1975661019</ele>
        <time>2015-06-08T13:31:02Z</time>
      </trkpt>
      <trkpt lat="44.01981" lon="3.48129">
        <ele>1262.773536102</ele>
        <time>2015-06-08T13:31:10Z</time>
      </trkpt>
      <trkpt lat="44.01981" lon="3.48128">
        <ele>1262.773536102</ele>
        <time>2015-06-08T13:31:19Z</time>
      </trkpt>
      <trkpt lat="44.01962" lon="3.48117">
        <ele>1258.1625588424</ele>
        <time>2015-06-08T13:31:32Z</time>
      </trkpt>
      <trkpt lat="44.01933" lon="3.48119">
        <ele>1253.3469786125</ele>
        <time>2015-06-08T13:32:04Z</time>
      </trkpt>
      <trkpt lat="44.01924" lon="3.48121">
        <ele>1253.3469786125</ele>
        <time>2015-06-08T13:32:10Z</time>
      </trkpt>
      <trkpt lat="44.01918" lon="3.48118">
        <ele>1248.5557191964</ele>
        <time>2015-06-08T13:32:18Z</time>
      </trkpt>
      <trkpt lat="44.01902" lon="3.48109">
        <ele>1244.2311034501</ele>
        <time>2015-06-08T13:32:57Z</time>
      </trkpt>
      <trkpt lat="44.01854" lon="3.48078">
        <ele>1239.3834676079</ele>
        <time>2015-06-08T13:33:02Z</time>
      </trkpt>
      <trkpt lat="44.01847" lon="3.48075">
        <ele>1239.3834676079</ele>
        <time>2015-06-08T13:33:07Z</time>
      </trkpt>
      <trkpt lat="44.01842" lon="3.4807">
        <ele>1235.3019003841</ele>
        <time>2015-06-08T13:33:12Z</time>
      </trkpt>
      <trkpt lat="44.0184" lon="3.48068">
        <ele>1235.3019003841</ele>
        <time>2015-06-08T13:33:17Z</time>
      </trkpt>
      <trkpt lat="44.01837" lon="3.48067">
        <ele>1235.3019003841</ele>
        <time>2015-06-08T13:33:22Z</time>
      </trkpt>
      <trkpt lat="44.01835" lon="3.48071">
        <ele>1232.0542577057</ele>
        <time>2015-06-08T13:33:27Z</time>
      </trkpt>
      <trkpt lat="44.0183" lon="3.48076">
        <ele>1232.0542577057</ele>
        <time>2015-06-08T13:33:32Z</time>
      </trkpt>
      <trkpt lat="44.01826" lon="3.48079">
        <ele>1229.2828273706</ele>
        <time>2015-06-08T13:33:37Z</time>
      </trkpt>
      <trkpt lat="44.0182" lon="3.48082">
        <ele>1229.2828273706</ele>
        <time>2015-06-08T13:33:42Z</time>
      </trkpt>
      <trkpt lat="44.01816" lon="3.48085">
        <ele>1226.798632025</ele>
        <time>2015-06-08T13:33:47Z</time>
      </trkpt>
      <trkpt lat="44.01811" lon="3.48091">
        <ele>1226.798632025</ele>
        <time>2015-06-08T13:33:52Z</time>
      </trkpt>
      <trkpt lat="44.01806" lon="3.48097">
        <ele>1224.5119286991</ele>
        <time>2015-06-08T13:33:57Z</time>
      </trkpt>
      <trkpt lat="44.01801" lon="3.481">
        <ele>1224.5119286991</ele>
        <time>2015-06-08T13:34:02Z</time>
      </trkpt>
      <trkpt lat="44.01797" lon="3.48107">
        <ele>1222.6989951134</ele>
        <time>2015-06-08T13:34:07Z</time>
      </trkpt>
      <trkpt lat="44.01794" lon="3.48114">
        <ele>1222.6989951134</ele>
        <time>2015-06-08T13:34:12Z</time>
      </trkpt>
      <trkpt lat="44.0179" lon="3.48121">
        <ele>1221.196282411</ele>
        <time>2015-06-08T13:34:17Z</time>
      </trkpt>
      <trkpt lat="44.01788" lon="3.48129">
        <ele>1221.196282411</ele>
        <time>2015-06-08T13:34:22Z</time>
      </trkpt>
      <trkpt lat="44.01788" lon="3.48137">
        <ele>1219.7934790098</ele>
        <time>2015-06-08T13:34:27Z</time>
      </trkpt>
      <trkpt lat="44.01788" lon="3.48145">
        <ele>1219.7934790098</ele>
        <time>2015-06-08T13:34:32Z</time>
      </trkpt>
      <trkpt lat="44.01788" lon="3.48153">
        <ele>1218.4681329105</ele>
        <time>2015-06-08T13:34:37Z</time>
      </trkpt>
      <trkpt lat="44.01789" lon="3.48161">
        <ele>1218.4681329105</ele>
        <time>2015-06-08T13:34:42Z</time>
      </trkpt>
      <trkpt lat="44.01789" lon="3.48162">
        <ele>1218.4681329105</ele>
        <time>2015-06-08T13:34:47Z</time>
      </trkpt>
      <trkpt lat="44.01787" lon="3.48166">
        <ele>1217.4151685777</ele>
        <time>2015-06-08T13:34:52Z</time>
      </trkpt>
      <trkpt lat="44.01791" lon="3.48172">
        <ele>1217.4151685777</ele>
        <time>2015-06-08T13:34:57Z</time>
      </trkpt>
      <trkpt lat="44.01795" lon="3.48177">
        <ele>1216.7421709486</ele>
        <time>2015-06-08T13:35:02Z</time>
      </trkpt>
      <trkpt lat="44.01799" lon="3.48183">
        <ele>1216.7421709486</ele>
        <time>2015-06-08T13:35:07Z</time>
      </trkpt>
      <trkpt lat="44.01803" lon="3.48185">
        <ele>1216.2161215292</ele>
        <time>2015-06-08T13:35:12Z</time>
      </trkpt>
      <trkpt lat="44.01809" lon="3.4819">
        <ele>1216.2161215292</ele>
        <time>2015-06-08T13:35:17Z</time>
      </trkpt>
      <trkpt lat="44.01812" lon="3.48194">
        <ele>1215.7358398786</ele>
        <time>2015-06-08T13:35:22Z</time>
      </trkpt>
      <trkpt lat="44.01815" lon="3.48199">
        <ele>1215.7358398786</ele>
        <time>2015-06-08T13:35:27Z</time>
      </trkpt>
      <trkpt lat="44.01816" lon="3.48204">
        <ele>1215.7358398786</ele>
        <time>2015-06-08T13:35:32Z</time>
      </trkpt>
      <trkpt lat="44.01816" lon="3.48211">
        <ele>1214.8614491778</ele>
        <time>2015-06-08T13:35:37Z</time>
      </trkpt>
      <trkpt lat="44.01819" lon="3.4824">
        <ele>1213.388133334</ele>
        <time>2015-06-08T13:36:01Z</time>
      </trkpt>
      <trkpt lat="44.01819" lon="3.48241">
        <ele>1213.388133334</ele>
        <time>2015-06-08T13:36:02Z</time>
      </trkpt>
      <trkpt lat="44.0182" lon="3.48246">
        <ele>1213.388133334</ele>
        <time>2015-06-08T13:36:07Z</time>
      </trkpt>
      <trkpt lat="44.01821" lon="3.48252">
        <ele>1213.388133334</ele>
        <time>2015-06-08T13:36:12Z</time>
      </trkpt>
      <trkpt lat="44.01823" lon="3.48259">
        <ele>1211.6176836712</ele>
        <time>2015-06-08T13:36:17Z</time>
      </trkpt>
      <trkpt lat="44.01823" lon="3.48266">
        <ele>1211.6176836712</ele>
        <time>2015-06-08T13:36:22Z</time>
      </trkpt>
      <trkpt lat="44.0182" lon="3.48273">
        <ele>1209.8160619313</ele>
        <time>2015-06-08T13:36:27Z</time>
      </trkpt>
      <trkpt lat="44.01811" lon="3.48293">
        <ele>1207.8982520232</ele>
        <time>2015-06-08T13:36:44Z</time>
      </trkpt>
      <trkpt lat="44.01809" lon="3.48298">
        <ele>1207.8982520232</ele>
        <time>2015-06-08T13:36:58Z</time>
      </trkpt>
      <trkpt lat="44.01806" lon="3.483">
        <ele>1207.8982520232</ele>
        <time>2015-06-08T13:37:23Z</time>
      </trkpt>
      <trkpt lat="44.01797" lon="3.48339">
        <ele>1206.0595563754</ele>
        <time>2015-06-08T13:37:54Z</time>
      </trkpt>
      <trkpt lat="44.01792" lon="3.48356">
        <ele>1204.3797745581</ele>
        <time>2015-06-08T13:38:07Z</time>
      </trkpt>
      <trkpt lat="44.01783" lon="3.48379">
        <ele>1202.8458828277</ele>
        <time>2015-06-08T13:38:23Z</time>
      </trkpt>
      <trkpt lat="44.0178" lon="3.48382">
        <ele>1202.8458828277</ele>
        <time>2015-06-08T13:38:31Z</time>
      </trkpt>
      <trkpt lat="44.01747" lon="3.48427">
        <ele>1201.5462419471</ele>
        <time>2015-06-08T13:39:07Z</time>
      </trkpt>
      <trkpt lat="44.01745" lon="3.48439">
        <ele>1200.3890992648</ele>
        <time>2015-06-08T13:39:07Z</time>
      </trkpt>
      <trkpt lat="44.01737" lon="3.48444">
        <ele>1200.3890992648</ele>
        <time>2015-06-08T13:39:12Z</time>
      </trkpt>
      <trkpt lat="44.01682" lon="3.48518">
        <ele>1197.8479058861</ele>
        <time>2015-06-08T13:40:12Z</time>
      </trkpt>
      <trkpt lat="44.01673" lon="3.48526">
        <ele>1195.4231614719</ele>
        <time>2015-06-08T13:40:23Z</time>
      </trkpt>
      <trkpt lat="44.01634" lon="3.48527">
        <ele>1192.5448848539</ele>
        <time>2015-06-08T13:40:47Z</time>
      </trkpt>
      <trkpt lat="44.01629" lon="3.48525">
        <ele>1192.5448848539</ele>
        <time>2015-06-08T13:40:52Z</time>
      </trkpt>
      <trkpt lat="44.01602" lon="3.48523">
        <ele>1189.3491314957</ele>
        <time>2015-06-08T13:41:14Z</time>
      </trkpt>
      <trkpt lat="44.01593" lon="3.48523">
        <ele>1186.2078205789</ele>
        <time>2015-06-08T13:41:22Z</time>
      </trkpt>
      <trkpt lat="44.01534" lon="3.48516">
        <ele>1181.9522022914</ele>
        <time>2015-06-08T13:42:12Z</time>
      </trkpt>
      <trkpt lat="44.01466" lon="3.48557">
        <ele>1176.2950806207</ele>
        <time>2015-06-08T13:43:17Z</time>
      </trkpt>
      <trkpt lat="44.01394" lon="3.48611">
        <ele>1169.4209769631</ele>
        <time>2015-06-08T13:44:13Z</time>
      </trkpt>
      <trkpt lat="44.01388" lon="3.48614">
        <ele>1169.4209769631</ele>
        <time>2015-06-08T13:44:23Z</time>
      </trkpt>
      <trkpt lat="44.01366" lon="3.48631">
        <ele>1162.3256270053</ele>
        <time>2015-06-08T13:44:42Z</time>
      </trkpt>
      <trkpt lat="44.01361" lon="3.48636">
        <ele>1162.3256270053</ele>
        <time>2015-06-08T13:44:47Z</time>
      </trkpt>
      <trkpt lat="44.0133" lon="3.48659">
        <ele>1155.2404012457</ele>
        <time>2015-06-08T13:45:12Z</time>
      </trkpt>
      <trkpt lat="44.01323" lon="3.48664">
        <ele>1155.2404012457</ele>
        <time>2015-06-08T13:45:17Z</time>
      </trkpt>
      <trkpt lat="44.01313" lon="3.48676">
        <ele>1148.610088085</ele>
        <time>2015-06-08T13:45:34Z</time>
      </trkpt>
      <trkpt lat="44.01256" lon="3.48721">
        <ele>1142.1824516677</ele>
        <time>2015-06-08T13:46:12Z</time>
      </trkpt>
      <trkpt lat="44.01249" lon="3.48726">
        <ele>1142.1824516677</ele>
        <time>2015-06-08T13:46:51Z</time>
      </trkpt>
      <trkpt lat="44.01208" lon="3.48753">
        <ele>1135.8671411131</ele>
        <time>2015-06-08T13:46:52Z</time>
      </trkpt>
      <trkpt lat="44.01189" lon="3.48771">
        <ele>1129.8681437038</ele>
        <time>2015-06-08T13:47:12Z</time>
      </trkpt>
      <trkpt lat="44.01182" lon="3.48847">
        <ele>1123.4078071029</ele>
        <time>2015-06-08T13:47:57Z</time>
      </trkpt>
      <trkpt lat="44.01192" lon="3.48872">
        <ele>1117.2365967654</ele>
        <time>2015-06-08T13:48:12Z</time>
      </trkpt>
      <trkpt lat="44.01193" lon="3.48874">
        <ele>1117.2365967654</ele>
        <time>2015-06-08T13:48:12Z</time>
      </trkpt>
      <trkpt lat="44.01198" lon="3.48882">
        <ele>1117.2365967654</ele>
        <time>2015-06-08T13:48:17Z</time>
      </trkpt>
      <trkpt lat="44.0122" lon="3.48939">
        <ele>1110.4059221336</ele>
        <time>2015-06-08T13:49:00Z</time>
      </trkpt>
      <trkpt lat="44.01219" lon="3.4894">
        <ele>1110.4059221336</ele>
        <time>2015-06-08T13:49:05Z</time>
      </trkpt>
      <trkpt lat="44.01212" lon="3.48953">
        <ele>1104.0416109392</ele>
        <time>2015-06-08T13:49:13Z</time>
      </trkpt>
      <trkpt lat="44.01202" lon="3.4902">
        <ele>1097.2829419733</ele>
        <time>2015-06-08T13:49:55Z</time>
      </trkpt>
      <trkpt lat="44.01199" lon="3.49021">
        <ele>1097.2829419733</ele>
        <time>2015-06-08T13:49:57Z</time>
      </trkpt>
      <trkpt lat="44.01184" lon="3.49033">
        <ele>1090.745537956</ele>
        <time>2015-06-08T13:50:11Z</time>
      </trkpt>
      <trkpt lat="44.01183" lon="3.49035">
        <ele>1090.745537956</ele>
        <time>2015-06-08T13:50:12Z</time>
      </trkpt>
      <trkpt lat="44.01145" lon="3.49084">
        <ele>1083.5145433403</ele>
        <time>2015-06-08T13:50:58Z</time>
      </trkpt>
      <trkpt lat="44.01122" lon="3.49103">
        <ele>1076.3868228523</ele>
        <time>2015-06-08T13:51:11Z</time>
      </trkpt>
      <trkpt lat="44.0112" lon="3.49105">
        <ele>1076.3868228523</ele>
        <time>2015-06-08T13:51:12Z</time>
      </trkpt>
      <trkpt lat="44.01088" lon="3.49136">
        <ele>1069.0913302312</ele>
        <time>2015-06-08T13:51:37Z</time>
      </trkpt>
      <trkpt lat="44.01063" lon="3.49161">
        <ele>1061.6508979159</ele>
        <time>2015-06-08T13:51:59Z</time>
      </trkpt>
      <trkpt lat="44.01057" lon="3.49168">
        <ele>1061.6508979159</ele>
        <time>2015-06-08T13:52:06Z</time>
      </trkpt>
      <trkpt lat="44.01036" lon="3.49179">
        <ele>1054.3461660816</ele>
        <time>2015-06-08T13:52:25Z</time>
      </trkpt>
      <trkpt lat="44.00985" lon="3.49228">
        <ele>1045.9232812711</ele>
        <time>2015-06-08T13:53:02Z</time>
      </trkpt>
      <trkpt lat="44.00983" lon="3.4924">
        <ele>1038.0766977303</ele>
        <time>2015-06-08T13:53:12Z</time>
      </trkpt>
      <trkpt lat="44.00945" lon="3.49272">
        <ele>1030.1839448021</ele>
        <time>2015-06-08T13:53:39Z</time>
      </trkpt>
      <trkpt lat="44.00917" lon="3.49277">
        <ele>1022.5903681002</ele>
        <time>2015-06-08T13:54:10Z</time>
      </trkpt>
      <trkpt lat="44.00903" lon="3.49279">
        <ele>1015.6579838237</ele>
        <time>2015-06-08T13:54:14Z</time>
      </trkpt>
      <trkpt lat="44.00899" lon="3.49277">
        <ele>1015.6579838237</ele>
        <time>2015-06-08T13:54:17Z</time>
      </trkpt>
      <trkpt lat="44.00884" lon="3.49272">
        <ele>1009.0282721403</ele>
        <time>2015-06-08T13:54:46Z</time>
      </trkpt>
      <trkpt lat="44.00858" lon="3.49258">
        <ele>1003.2901635467</ele>
        <time>2015-06-08T13:55:04Z</time>
      </trkpt>
      <trkpt lat="44.00848" lon="3.49249">
        <ele>998.43886482042</ele>
        <time>2015-06-08T13:55:13Z</time>
      </trkpt>
      <trkpt lat="44.00843" lon="3.49246">
        <ele>998.43886482042</ele>
        <time>2015-06-08T13:55:17Z</time>
      </trkpt>
      <trkpt lat="44.00836" lon="3.4924">
        <ele>994.36624884905</ele>
        <time>2015-06-08T13:55:30Z</time>
      </trkpt>
      <trkpt lat="44.00798" lon="3.49194">
        <ele>991.04170539533</ele>
        <time>2015-06-08T13:56:17Z</time>
      </trkpt>
      <trkpt lat="44.00768" lon="3.49198">
        <ele>988.66508446049</ele>
        <time>2015-06-08T13:56:22Z</time>
      </trkpt>
      <trkpt lat="44.00754" lon="3.492">
        <ele>986.91427398889</ele>
        <time>2015-06-08T13:57:17Z</time>
      </trkpt>
      <trkpt lat="44.00749" lon="3.49201">
        <ele>986.91427398889</ele>
        <time>2015-06-08T13:57:22Z</time>
      </trkpt>
      <trkpt lat="44.00673" lon="3.49204">
        <ele>985.18624034422</ele>
        <time>2015-06-08T13:58:23Z</time>
      </trkpt>
      <trkpt lat="44.00633" lon="3.49203">
        <ele>983.55611918151</ele>
        <time>2015-06-08T13:58:49Z</time>
      </trkpt>
      <trkpt lat="44.00631" lon="3.49204">
        <ele>983.55611918151</ele>
        <time>2015-06-08T13:58:59Z</time>
      </trkpt>
      <trkpt lat="44.00587" lon="3.4921">
        <ele>981.12759179399</ele>
        <time>2015-06-08T13:59:24Z</time>
      </trkpt>
      <trkpt lat="44.00586" lon="3.49211">
        <ele>981.12759179399</ele>
        <time>2015-06-08T13:59:34Z</time>
      </trkpt>
      <trkpt lat="44.00537" lon="3.49196">
        <ele>977.50467464852</ele>
        <time>2015-06-08T14:00:09Z</time>
      </trkpt>
      <trkpt lat="44.00536" lon="3.49196">
        <ele>977.50467464852</ele>
        <time>2015-06-08T14:00:16Z</time>
      </trkpt>
      <trkpt lat="44.00533" lon="3.49191">
        <ele>977.50467464852</ele>
        <time>2015-06-08T14:00:17Z</time>
      </trkpt>
      <trkpt lat="44.00533" lon="3.49188">
        <ele>977.50467464852</ele>
        <time>2015-06-08T14:00:22Z</time>
      </trkpt>
      <trkpt lat="44.0048" lon="3.49134">
        <ele>972.26612405894</ele>
        <time>2015-06-08T14:01:22Z</time>
      </trkpt>
      <trkpt lat="44.00454" lon="3.49157">
        <ele>966.35195772691</ele>
        <time>2015-06-08T14:02:20Z</time>
      </trkpt>
      <trkpt lat="44.00451" lon="3.49157">
        <ele>966.35195772691</ele>
        <time>2015-06-08T14:02:22Z</time>
      </trkpt>
      <trkpt lat="44.00443" lon="3.49149">
        <ele>960.98087341978</ele>
        <time>2015-06-08T14:02:34Z</time>
      </trkpt>
      <trkpt lat="44.00405" lon="3.49149">
        <ele>955.14764861003</ele>
        <time>2015-06-08T14:03:22Z</time>
      </trkpt>
      <trkpt lat="44.0038" lon="3.49157">
        <ele>948.830072124</ele>
        <time>2015-06-08T14:04:21Z</time>
      </trkpt>
      <trkpt lat="44.00379" lon="3.49158">
        <ele>948.830072124</ele>
        <time>2015-06-08T14:04:22Z</time>
      </trkpt>
      <trkpt lat="44.00362" lon="3.49181">
        <ele>942.41240275663</ele>
        <time>2015-06-08T14:04:58Z</time>
      </trkpt>
      <trkpt lat="44.00377" lon="3.49195">
        <ele>936.4670844206</ele>
        <time>2015-06-08T14:05:25Z</time>
      </trkpt>
      <trkpt lat="44.00383" lon="3.49202">
        <ele>936.4670844206</ele>
        <time>2015-06-08T14:05:36Z</time>
      </trkpt>
      <trkpt lat="44.00372" lon="3.49224">
        <ele>930.2405555477</ele>
        <time>2015-06-08T14:06:22Z</time>
      </trkpt>
      <trkpt lat="44.00366" lon="3.49225">
        <ele>930.2405555477</ele>
        <time>2015-06-08T14:06:27Z</time>
      </trkpt>
      <trkpt lat="44.00301" lon="3.49221">
        <ele>924.79351318795</ele>
        <time>2015-06-08T14:07:21Z</time>
      </trkpt>
      <trkpt lat="44.003" lon="3.4922">
        <ele>924.79351318795</ele>
        <time>2015-06-08T14:07:22Z</time>
      </trkpt>
      <trkpt lat="44.00247" lon="3.49212">
        <ele>919.4204048943</ele>
        <time>2015-06-08T14:08:21Z</time>
      </trkpt>
      <trkpt lat="44.00224" lon="3.49204">
        <ele>913.25108888895</ele>
        <time>2015-06-08T14:08:22Z</time>
      </trkpt>
      <trkpt lat="44.00217" lon="3.492">
        <ele>913.25108888895</ele>
        <time>2015-06-08T14:08:27Z</time>
      </trkpt>
      <trkpt lat="44.00187" lon="3.49189">
        <ele>907.65761184544</ele>
        <time>2015-06-08T14:09:07Z</time>
      </trkpt>
      <trkpt lat="44.00159" lon="3.49159">
        <ele>901.1570477679</ele>
        <time>2015-06-08T14:09:22Z</time>
      </trkpt>
      <trkpt lat="44.0016" lon="3.49155">
        <ele>901.1570477679</ele>
        <time>2015-06-08T14:09:27Z</time>
      </trkpt>
      <trkpt lat="44.00164" lon="3.49145">
        <ele>894.77014975142</ele>
        <time>2015-06-08T14:10:21Z</time>
      </trkpt>
      <trkpt lat="44.00144" lon="3.49156">
        <ele>889.25497637528</ele>
        <time>2015-06-08T14:10:22Z</time>
      </trkpt>
      <trkpt lat="44.00138" lon="3.49194">
        <ele>880.45485421326</ele>
        <time>2015-06-08T14:10:52Z</time>
      </trkpt>
      <trkpt lat="44.00129" lon="3.4917">
        <ele>871.70434488022</ele>
        <time>2015-06-08T14:11:08Z</time>
      </trkpt>
      <trkpt lat="44.00119" lon="3.49107">
        <ele>862.3747704159</ele>
        <time>2015-06-08T14:11:48Z</time>
      </trkpt>
      <trkpt lat="44.00105" lon="3.49117">
        <ele>853.23980856843</ele>
        <time>2015-06-08T14:12:07Z</time>
      </trkpt>
      <trkpt lat="44.00095" lon="3.49144">
        <ele>844.5112505978</ele>
        <time>2015-06-08T14:12:23Z</time>
      </trkpt>
      <trkpt lat="44.00095" lon="3.49153">
        <ele>844.5112505978</ele>
        <time>2015-06-08T14:12:27Z</time>
      </trkpt>
      <trkpt lat="44.00086" lon="3.49178">
        <ele>835.73555206947</ele>
        <time>2015-06-08T14:12:58Z</time>
      </trkpt>
      <trkpt lat="44.00076" lon="3.49154">
        <ele>827.09773027949</ele>
        <time>2015-06-08T14:13:12Z</time>
      </trkpt>
      <trkpt lat="44.00076" lon="3.49147">
        <ele>827.09773027949</ele>
        <time>2015-06-08T14:13:23Z</time>
      </trkpt>
      <trkpt lat="44.00075" lon="3.49146">
        <ele>827.09773027949</ele>
        <time>2015-06-08T14:13:36Z</time>
      </trkpt>
      <trkpt lat="44.0008" lon="3.49142">
        <ele>819.21540161217</ele>
        <time>2015-06-08T14:13:51Z</time>
      </trkpt>
      <trkpt lat="44.0007" lon="3.49113">
        <ele>812.3414733287</ele>
        <time>2015-06-08T14:14:12Z</time>
      </trkpt>
      <trkpt lat="44.00067" lon="3.49097">
        <ele>806.28934531551</ele>
        <time>2015-06-08T14:14:23Z</time>
      </trkpt>
      <trkpt lat="44.00058" lon="3.49098">
        <ele>801.09981344652</ele>
        <time>2015-06-08T14:14:30Z</time>
      </trkpt>
      <trkpt lat="44.00048" lon="3.49106">
        <ele>796.64957386438</ele>
        <time>2015-06-08T14:14:42Z</time>
      </trkpt>
      <trkpt lat="44.00005" lon="3.49124">
        <ele>792.21689643813</ele>
        <time>2015-06-08T14:15:17Z</time>
      </trkpt>
      <trkpt lat="43.99997" lon="3.49133">
        <ele>788.31460983812</ele>
        <time>2015-06-08T14:15:25Z</time>
      </trkpt>
      <trkpt lat="43.99994" lon="3.49135">
        <ele>788.31460983812</ele>
        <time>2015-06-08T14:15:27Z</time>
      </trkpt>
      <trkpt lat="43.99979" lon="3.49138">
        <ele>785.02718628286</ele>
        <time>2015-06-08T14:15:38Z</time>
      </trkpt>
      <trkpt lat="43.99964" lon="3.49146">
        <ele>782.17169858057</ele>
        <time>2015-06-08T14:16:07Z</time>
      </trkpt>
      <trkpt lat="43.99941" lon="3.49164">
        <ele>779.76474990627</ele>
        <time>2015-06-08T14:16:21Z</time>
      </trkpt>
      <trkpt lat="43.9994" lon="3.49167">
        <ele>779.76474990627</ele>
        <time>2015-06-08T14:16:23Z</time>
      </trkpt>
      <trkpt lat="43.99922" lon="3.49195">
        <ele>777.67634505229</ele>
        <time>2015-06-08T14:16:46Z</time>
      </trkpt>
      <trkpt lat="43.99921" lon="3.49196">
        <ele>777.67634505229</ele>
        <time>2015-06-08T14:16:47Z</time>
      </trkpt>
      <trkpt lat="43.99895" lon="3.49222">
        <ele>776.07339009021</ele>
        <time>2015-06-08T14:17:14Z</time>
      </trkpt>
      <trkpt lat="43.99877" lon="3.49234">
        <ele>774.90746944919</ele>
        <time>2015-06-08T14:17:24Z</time>
      </trkpt>
      <trkpt lat="43.99837" lon="3.49231">
        <ele>774.01729988184</ele>
        <time>2015-06-08T14:17:47Z</time>
      </trkpt>
      <trkpt lat="43.99787" lon="3.49202">
        <ele>772.92134084053</ele>
        <time>2015-06-08T14:18:27Z</time>
      </trkpt>
      <trkpt lat="43.99783" lon="3.49162">
        <ele>772.12529353562</ele>
        <time>2015-06-08T14:19:05Z</time>
      </trkpt>
      <trkpt lat="43.99781" lon="3.49125">
        <ele>770.16596578055</ele>
        <time>2015-06-08T14:19:07Z</time>
      </trkpt>
      <trkpt lat="43.99793" lon="3.49079">
        <ele>767.43486909389</ele>
        <time>2015-06-08T14:19:29Z</time>
      </trkpt>
      <trkpt lat="43.99795" lon="3.49076">
        <ele>767.43486909389</ele>
        <time>2015-06-08T14:19:39Z</time>
      </trkpt>
      <trkpt lat="43.99804" lon="3.49053">
        <ele>764.22509176889</ele>
        <time>2015-06-08T14:19:55Z</time>
      </trkpt>
      <trkpt lat="43.99789" lon="3.4905">
        <ele>761.01152934754</ele>
        <time>2015-06-08T14:19:57Z</time>
      </trkpt>
      <trkpt lat="43.99783" lon="3.49051">
        <ele>761.01152934754</ele>
        <time>2015-06-08T14:20:03Z</time>
      </trkpt>
      <trkpt lat="43.99757" lon="3.49071">
        <ele>757.28331236607</ele>
        <time>2015-06-08T14:20:27Z</time>
      </trkpt>
      <trkpt lat="43.99752" lon="3.49076">
        <ele>757.28331236607</ele>
        <time>2015-06-08T14:20:32Z</time>
      </trkpt>
      <trkpt lat="43.99745" lon="3.49084">
        <ele>753.36139894321</ele>
        <time>2015-06-08T14:20:37Z</time>
      </trkpt>
      <trkpt lat="43.99742" lon="3.49092">
        <ele>753.36139894321</ele>
        <time>2015-06-08T14:20:42Z</time>
      </trkpt>
      <trkpt lat="43.99736" lon="3.49099">
        <ele>749.57277773543</ele>
        <time>2015-06-08T14:20:47Z</time>
      </trkpt>
      <trkpt lat="43.99733" lon="3.49107">
        <ele>749.57277773543</ele>
        <time>2015-06-08T14:20:52Z</time>
      </trkpt>
      <trkpt lat="43.99732" lon="3.49112">
        <ele>746.01852642599</ele>
        <time>2015-06-08T14:21:00Z</time>
      </trkpt>
      <trkpt lat="43.99713" lon="3.49129">
        <ele>741.65339515727</ele>
        <time>2015-06-08T14:21:27Z</time>
      </trkpt>
      <trkpt lat="43.9971" lon="3.49115">
        <ele>737.70190938528</ele>
        <time>2015-06-08T14:21:32Z</time>
      </trkpt>
      <trkpt lat="43.99668" lon="3.49032">
        <ele>731.91108644357</ele>
        <time>2015-06-08T14:22:29Z</time>
      </trkpt>
      <trkpt lat="43.99575" lon="3.49008">
        <ele>724.56223175696</ele>
        <time>2015-06-08T14:23:34Z</time>
      </trkpt>
      <trkpt lat="43.99516" lon="3.49001">
        <ele>716.75638231491</ele>
        <time>2015-06-08T14:24:17Z</time>
      </trkpt>
      <trkpt lat="43.99497" lon="3.49007">
        <ele>709.54395192017</ele>
        <time>2015-06-08T14:24:28Z</time>
      </trkpt>
      <trkpt lat="43.99493" lon="3.49009">
        <ele>709.54395192017</ele>
        <time>2015-06-08T14:24:32Z</time>
      </trkpt>
      <trkpt lat="43.99491" lon="3.49013">
        <ele>709.54395192017</ele>
        <time>2015-06-08T14:24:45Z</time>
      </trkpt>
      <trkpt lat="43.99475" lon="3.49033">
        <ele>702.62847255405</ele>
        <time>2015-06-08T14:25:03Z</time>
      </trkpt>
      <trkpt lat="43.99465" lon="3.49026">
        <ele>696.4406618018</ele>
        <time>2015-06-08T14:25:39Z</time>
      </trkpt>
      <trkpt lat="43.99491" lon="3.49046">
        <ele>691.08940598281</ele>
        <time>2015-06-08T14:26:02Z</time>
      </trkpt>
      <trkpt lat="43.99495" lon="3.49049">
        <ele>691.08940598281</ele>
        <time>2015-06-08T14:26:14Z</time>
      </trkpt>
      <trkpt lat="43.99523" lon="3.49083">
        <ele>686.471546843</ele>
        <time>2015-06-08T14:26:34Z</time>
      </trkpt>
      <trkpt lat="43.99525" lon="3.49095">
        <ele>686.471546843</ele>
        <time>2015-06-08T14:26:44Z</time>
      </trkpt>
      <trkpt lat="43.99578" lon="3.49188">
        <ele>681.16366884472</ele>
        <time>2015-06-08T14:27:32Z</time>
      </trkpt>
      <trkpt lat="43.99582" lon="3.49196">
        <ele>681.16366884472</ele>
        <time>2015-06-08T14:27:37Z</time>
      </trkpt>
      <trkpt lat="43.99613" lon="3.49293">
        <ele>674.74237994233</ele>
        <time>2015-06-08T14:28:32Z</time>
      </trkpt>
      <trkpt lat="43.99624" lon="3.49318">
        <ele>668.57669632556</ele>
        <time>2015-06-08T14:28:45Z</time>
      </trkpt>
      <trkpt lat="43.99626" lon="3.4932">
        <ele>668.57669632556</ele>
        <time>2015-06-08T14:28:47Z</time>
      </trkpt>
      <trkpt lat="43.99632" lon="3.49328">
        <ele>662.9255885787</ele>
        <time>2015-06-08T14:28:52Z</time>
      </trkpt>
      <trkpt lat="43.99637" lon="3.49338">
        <ele>662.9255885787</ele>
        <time>2015-06-08T14:28:57Z</time>
      </trkpt>
      <trkpt lat="43.9964" lon="3.49348">
        <ele>657.62405505036</ele>
        <time>2015-06-08T14:29:02Z</time>
      </trkpt>
      <trkpt lat="43.99641" lon="3.49358">
        <ele>657.62405505036</ele>
        <time>2015-06-08T14:29:07Z</time>
      </trkpt>
      <trkpt lat="43.99644" lon="3.49366">
        <ele>652.6623434618</ele>
        <time>2015-06-08T14:29:12Z</time>
      </trkpt>
      <trkpt lat="43.99646" lon="3.49376">
        <ele>652.6623434618</ele>
        <time>2015-06-08T14:29:17Z</time>
      </trkpt>
      <trkpt lat="43.99648" lon="3.49382">
        <ele>648.05928017273</ele>
        <time>2015-06-08T14:29:22Z</time>
      </trkpt>
      <trkpt lat="43.9965" lon="3.4939">
        <ele>648.05928017273</ele>
        <time>2015-06-08T14:29:27Z</time>
      </trkpt>
      <trkpt lat="43.99653" lon="3.494">
        <ele>643.75923902624</ele>
        <time>2015-06-08T14:29:32Z</time>
      </trkpt>
      <trkpt lat="43.99654" lon="3.49408">
        <ele>643.75923902624</ele>
        <time>2015-06-08T14:29:37Z</time>
      </trkpt>
      <trkpt lat="43.99658" lon="3.49416">
        <ele>639.76746847395</ele>
        <time>2015-06-08T14:29:42Z</time>
      </trkpt>
      <trkpt lat="43.99683" lon="3.49471">
        <ele>635.09359622292</ele>
        <time>2015-06-08T14:30:17Z</time>
      </trkpt>
      <trkpt lat="43.99685" lon="3.49475">
        <ele>635.09359622292</ele>
        <time>2015-06-08T14:30:28Z</time>
      </trkpt>
      <trkpt lat="43.99679" lon="3.49475">
        <ele>630.60889439278</ele>
        <time>2015-06-08T14:30:32Z</time>
      </trkpt>
      <trkpt lat="43.99675" lon="3.49469">
        <ele>630.60889439278</ele>
        <time>2015-06-08T14:30:37Z</time>
      </trkpt>
      <trkpt lat="43.9967" lon="3.49462">
        <ele>626.37072717476</ele>
        <time>2015-06-08T14:30:42Z</time>
      </trkpt>
      <trkpt lat="43.99664" lon="3.49456">
        <ele>626.37072717476</ele>
        <time>2015-06-08T14:30:47Z</time>
      </trkpt>
      <trkpt lat="43.99646" lon="3.49436">
        <ele>622.0280488804</ele>
        <time>2015-06-08T14:31:25Z</time>
      </trkpt>
      <trkpt lat="43.99596" lon="3.49387">
        <ele>618.74025093776</ele>
        <time>2015-06-08T14:31:44Z</time>
      </trkpt>
      <trkpt lat="43.99587" lon="3.49376">
        <ele>616.36808237097</ele>
        <time>2015-06-08T14:31:44Z</time>
      </trkpt>
      <trkpt lat="43.99524" lon="3.49254">
        <ele>616.22109772389</ele>
        <time>2015-06-08T14:33:37Z</time>
      </trkpt>
      <trkpt lat="43.99507" lon="3.49228">
        <ele>616.42248489903</ele>
        <time>2015-06-08T14:34:34Z</time>
      </trkpt>
      <trkpt lat="43.99478" lon="3.49199">
        <ele>616.88968375912</ele>
        <time>2015-06-08T14:34:57Z</time>
      </trkpt>
      <trkpt lat="43.99445" lon="3.49201">
        <ele>617.34381096184</ele>
        <time>2015-06-08T14:35:26Z</time>
      </trkpt>
      <trkpt lat="43.99434" lon="3.49218">
        <ele>617.84369781309</ele>
        <time>2015-06-08T14:35:34Z</time>
      </trkpt>
      <trkpt lat="43.99408" lon="3.49257">
        <ele>618.29979265357</ele>
        <time>2015-06-08T14:35:58Z</time>
      </trkpt>
      <trkpt lat="43.99386" lon="3.49286">
        <ele>618.74474119184</ele>
        <time>2015-06-08T14:36:37Z</time>
      </trkpt>
      <trkpt lat="43.99385" lon="3.49293">
        <ele>618.74474119184</ele>
        <time>2015-06-08T14:37:04Z</time>
      </trkpt>
      <trkpt lat="43.99383" lon="3.49298">
        <ele>618.74474119184</ele>
        <time>2015-06-08T14:37:07Z</time>
      </trkpt>
      <trkpt lat="43.99368" lon="3.49319">
        <ele>618.94965495429</ele>
        <time>2015-06-08T14:37:27Z</time>
      </trkpt>
      <trkpt lat="43.99364" lon="3.49327">
        <ele>618.94965495429</ele>
        <time>2015-06-08T14:37:34Z</time>
      </trkpt>
      <trkpt lat="43.99358" lon="3.49338">
        <ele>619.27983309859</ele>
        <time>2015-06-08T14:37:40Z</time>
      </trkpt>
      <trkpt lat="43.99351" lon="3.49389">
        <ele>619.62691959616</ele>
        <time>2015-06-08T14:38:03Z</time>
      </trkpt>
      <trkpt lat="43.9934" lon="3.49425">
        <ele>619.94840801803</ele>
        <time>2015-06-08T14:38:34Z</time>
      </trkpt>
      <trkpt lat="43.99338" lon="3.49437">
        <ele>620.01794910364</ele>
        <time>2015-06-08T14:38:57Z</time>
      </trkpt>
      <trkpt lat="43.99329" lon="3.49506">
        <ele>619.22333482411</ele>
        <time>2015-06-08T14:39:37Z</time>
      </trkpt>
      <trkpt lat="43.99328" lon="3.49514">
        <ele>619.22333482411</ele>
        <time>2015-06-08T14:39:42Z</time>
      </trkpt>
      <trkpt lat="43.99323" lon="3.49523">
        <ele>618.41236878837</ele>
        <time>2015-06-08T14:39:47Z</time>
      </trkpt>
      <trkpt lat="43.99268" lon="3.49552">
        <ele>617.00189319646</ele>
        <time>2015-06-08T14:40:32Z</time>
      </trkpt>
      <trkpt lat="43.99238" lon="3.49534">
        <ele>614.9579847407</ele>
        <time>2015-06-08T14:41:00Z</time>
      </trkpt>
      <trkpt lat="43.99241" lon="3.49554">
        <ele>612.35218424557</ele>
        <time>2015-06-08T14:41:19Z</time>
      </trkpt>
      <trkpt lat="43.9926" lon="3.49584">
        <ele>609.35353650384</ele>
        <time>2015-06-08T14:41:43Z</time>
      </trkpt>
      <trkpt lat="43.99328" lon="3.49615">
        <ele>604.96716801464</ele>
        <time>2015-06-08T14:42:37Z</time>
      </trkpt>
      <trkpt lat="43.99335" lon="3.49611">
        <ele>604.96716801464</ele>
        <time>2015-06-08T14:42:42Z</time>
      </trkpt>
      <trkpt lat="43.99321" lon="3.49659">
        <ele>599.0680543372</ele>
        <time>2015-06-08T14:43:37Z</time>
      </trkpt>
      <trkpt lat="43.99285" lon="3.49677">
        <ele>592.62566323557</ele>
        <time>2015-06-08T14:44:14Z</time>
      </trkpt>
      <trkpt lat="43.99285" lon="3.49697">
        <ele>585.80499615715</ele>
        <time>2015-06-08T14:44:37Z</time>
      </trkpt>
      <trkpt lat="43.99291" lon="3.49697">
        <ele>585.80499615715</ele>
        <time>2015-06-08T14:44:42Z</time>
      </trkpt>
      <trkpt lat="43.99296" lon="3.49698">
        <ele>579.39423608979</ele>
        <time>2015-06-08T14:44:48Z</time>
      </trkpt>
      <trkpt lat="43.99296" lon="3.49716">
        <ele>573.41648315834</ele>
        <time>2015-06-08T14:45:17Z</time>
      </trkpt>
      <trkpt lat="43.99279" lon="3.49736">
        <ele>566.17707379661</ele>
        <time>2015-06-08T14:45:38Z</time>
      </trkpt>
      <trkpt lat="43.99278" lon="3.4974">
        <ele>566.17707379661</ele>
        <time>2015-06-08T14:45:46Z</time>
      </trkpt>
      <trkpt lat="43.99278" lon="3.4974">
        <ele>566.17707379661</ele>
        <time>2015-06-08T14:45:52Z</time>
      </trkpt>
      <trkpt lat="43.99273" lon="3.49738">
        <ele>566.17707379661</ele>
        <time>2015-06-08T14:46:12Z</time>
      </trkpt>
      <trkpt lat="43.99248" lon="3.49753">
        <ele>559.55366349203</ele>
        <time>2015-06-08T14:47:38Z</time>
      </trkpt>
      <trkpt lat="43.9927" lon="3.49791">
        <ele>553.30992515768</ele>
        <time>2015-06-08T14:48:18Z</time>
      </trkpt>
      <trkpt lat="43.99249" lon="3.49832">
        <ele>546.9087506634</ele>
        <time>2015-06-08T14:48:42Z</time>
      </trkpt>
      <trkpt lat="43.99244" lon="3.49838">
        <ele>546.9087506634</ele>
        <time>2015-06-08T14:48:47Z</time>
      </trkpt>
      <trkpt lat="43.99239" lon="3.49844">
        <ele>540.93370267183</ele>
        <time>2015-06-08T14:48:52Z</time>
      </trkpt>
      <trkpt lat="43.99198" lon="3.49915">
        <ele>534.20927158882</ele>
        <time>2015-06-08T14:49:40Z</time>
      </trkpt>
      <trkpt lat="43.99197" lon="3.49919">
        <ele>534.20927158882</ele>
        <time>2015-06-08T14:49:42Z</time>
      </trkpt>
      <trkpt lat="43.99162" lon="3.50033">
        <ele>526.09503545353</ele>
        <time>2015-06-08T14:50:42Z</time>
      </trkpt>
      <trkpt lat="43.99164" lon="3.50042">
        <ele>526.09503545353</ele>
        <time>2015-06-08T14:50:58Z</time>
      </trkpt>
      <trkpt lat="43.99178" lon="3.50076">
        <ele>516.88045472606</ele>
        <time>2015-06-08T14:51:42Z</time>
      </trkpt>
      <trkpt lat="43.99175" lon="3.50087">
        <ele>516.88045472606</ele>
        <time>2015-06-08T14:51:48Z</time>
      </trkpt>
      <trkpt lat="43.99121" lon="3.50063">
        <ele>507.98953267869</ele>
        <time>2015-06-08T14:52:33Z</time>
      </trkpt>
      <trkpt lat="43.99103" lon="3.50046">
        <ele>499.73177841237</ele>
        <time>2015-06-08T14:52:42Z</time>
      </trkpt>
      <trkpt lat="43.99046" lon="3.50054">
        <ele>491.23906569107</ele>
        <time>2015-06-08T14:53:17Z</time>
      </trkpt>
      <trkpt lat="43.99038" lon="3.50092">
        <ele>483.09090527058</ele>
        <time>2015-06-08T14:53:42Z</time>
      </trkpt>
      <trkpt lat="43.98991" lon="3.50118">
        <ele>475.20330852749</ele>
        <time>2015-06-08T14:54:19Z</time>
      </trkpt>
      <trkpt lat="43.98988" lon="3.50117">
        <ele>475.20330852749</ele>
        <time>2015-06-08T14:54:32Z</time>
      </trkpt>
      <trkpt lat="43.98974" lon="3.50111">
        <ele>467.77123453151</ele>
        <time>2015-06-08T14:54:42Z</time>
      </trkpt>
      <trkpt lat="43.9898" lon="3.50113">
        <ele>467.77123453151</ele>
        <time>2015-06-08T14:54:48Z</time>
      </trkpt>
      <trkpt lat="43.98996" lon="3.50111">
        <ele>461.00254972333</ele>
        <time>2015-06-08T14:55:25Z</time>
      </trkpt>
      <trkpt lat="43.99063" lon="3.50097">
        <ele>454.69856672424</ele>
        <time>2015-06-08T14:55:43Z</time>
      </trkpt>
      <trkpt lat="43.9916" lon="3.5018">
        <ele>448.9617876737</ele>
        <time>2015-06-08T14:57:06Z</time>
      </trkpt>
      <trkpt lat="43.99135" lon="3.50245">
        <ele>443.10707168421</ele>
        <time>2015-06-08T14:57:47Z</time>
      </trkpt>
      <trkpt lat="43.99125" lon="3.50264">
        <ele>437.92632511104</ele>
        <time>2015-06-08T14:58:00Z</time>
      </trkpt>
      <trkpt lat="43.99126" lon="3.50264">
        <ele>437.92632511104</ele>
        <time>2015-06-08T14:58:01Z</time>
      </trkpt>
      <trkpt lat="43.99137" lon="3.5027">
        <ele>433.5890547681</ele>
        <time>2015-06-08T14:58:22Z</time>
      </trkpt>
      <trkpt lat="43.99129" lon="3.50279">
        <ele>429.70204034568</ele>
        <time>2015-06-08T14:58:47Z</time>
      </trkpt>
      <trkpt lat="43.99107" lon="3.50315">
        <ele>426.33175084885</ele>
        <time>2015-06-08T14:59:12Z</time>
      </trkpt>
      <trkpt lat="43.99099" lon="3.50359">
        <ele>423.56690272919</ele>
        <time>2015-06-08T14:59:39Z</time>
      </trkpt>
      <trkpt lat="43.9909" lon="3.50372">
        <ele>421.24279343846</ele>
        <time>2015-06-08T14:59:52Z</time>
      </trkpt>
      <trkpt lat="43.99086" lon="3.50411">
        <ele>419.20539888829</ele>
        <time>2015-06-08T15:00:16Z</time>
      </trkpt>
      <trkpt lat="43.99084" lon="3.50415">
        <ele>419.20539888829</ele>
        <time>2015-06-08T15:00:17Z</time>
      </trkpt>
      <trkpt lat="43.99075" lon="3.50424">
        <ele>417.68574289668</ele>
        <time>2015-06-08T15:00:40Z</time>
      </trkpt>
      <trkpt lat="43.99074" lon="3.50423">
        <ele>417.68574289668</ele>
        <time>2015-06-08T15:00:42Z</time>
      </trkpt>
      <trkpt lat="43.99076" lon="3.50436">
        <ele>417.31423276035</ele>
        <time>2015-06-08T15:02:27Z</time>
      </trkpt>
    </trkseg>
  </trk>
</gpx>